Another Hard Day at the Office Weather Stats

 
 
 

High monthly outside Temperature, 22.8 , C
Low monthly outside Temperature, -1.0 , C
High yearly outside Temperature, 30.9 , C
Low yearly outside Temperature, -2.2 , C

Low monthly barometer, 1001.1 , mb
High monthly barometer, 1028.0 , mb
Low yearly barometer, 975.0 , mb
High yearly barometer 1041.1 , mb

High wind speed, 25.0 , mph
Time of High wind speed, 21:37 , mph
High monthly wind speed, 47.0 , mph
High yearly wind speed, 55.0 , mph

 

 




3126
                    Temp     Hi    Low   Out    Dew  Wind  Wind   Wind    Hi    Hi   Wind   Heat    THW                Rain    Heat    Cool    In     In    In     In     In   In Air  Wind  Wind    ISS   Arc.
  Date    Time     Out   Temp   Temp   Hum    Pt. Speed   Dir    Run Speed   Dir  Chill  Index  Index   Bar    Rain  Rate    D-D     D-D    Temp   Hum    Dew   Heat    EMC Density  Samp   Tx   Recept  Int.
---------------------------------------------------------------------------------------------------------------------------------------------------------------------------------------------------------------
 9/12/19   0:05  -67.8  -67.8  -67.8   ---    ---  11.0   WSW   0.92  26.0     W  -89.4    ---    ---   992.1  0.00  0.00   0.299   0.000   22.3    41    8.4   21.4   7.86  .0722    116    1    100.0    5 
 9/12/19   0:10  -67.8  -67.8  -67.8   ---    ---   8.0   WSW   0.67  19.0   WSW  -86.4    ---    ---   992.1  0.00  0.00   0.299   0.000   22.3    41    8.4   21.4   7.86  .0722    117    1    100.0    5 
 9/12/19   0:15  -67.8  -67.8  -67.8   ---    ---   6.0   WSW   0.50  17.0   WSW  -83.9    ---    ---   992.2  0.00  0.00   0.299   0.000   22.3    41    8.4   21.4   7.86  .0723    117    1    100.0    5 
 9/12/19   0:20  -67.8  -67.8  -67.8   ---    ---   8.0   WSW   0.67  20.0   WSW  -86.4    ---    ---   992.2  0.00  0.00   0.299   0.000   22.3    41    8.4   21.3   7.87  .0723    116    1    100.0    5 
 9/12/19   0:25  -67.8  -67.8  -67.8   ---    ---   6.0     W   0.50  19.0     W  -83.9    ---    ---   992.5  0.00  0.00   0.299   0.000   22.3    41    8.4   21.3   7.87  .0723    115    1    100.0    5 
 9/12/19   0:30  -67.8  -67.8  -67.8   ---    ---   5.0     W   0.42  17.0   WSW  -82.3    ---    ---   992.5  0.00  0.00   0.299   0.000   22.2    41    8.3   21.2   7.87  .0723    116    1    100.0    5 
 9/12/19   0:35  -67.8  -67.8  -67.8   ---    ---   6.0   WSW   0.50  18.0     W  -83.9    ---    ---   992.6  0.00  0.00   0.299   0.000   22.2    41    8.3   21.2   7.87  .0723    116    1    100.0    5 
 9/12/19   0:40  -67.8  -67.8  -67.8   ---    ---   6.0     W   0.50  18.0   WSW  -83.9    ---    ---   992.5  0.00  0.00   0.299   0.000   22.2    41    8.3   21.2   7.87  .0723    116    1    100.0    5 
 9/12/19   0:45  -67.8  -67.8  -67.8   ---    ---   6.0     W   0.50  19.0   WSW  -83.9    ---    ---   992.7  0.00  0.00   0.299   0.000   22.2    41    8.3   21.2   7.87  .0723    116    1    100.0    5 
 9/12/19   0:50  -67.8  -67.8  -67.8   ---    ---   6.0     W   0.50  15.0     W  -83.9    ---    ---   992.7  0.00  0.00   0.299   0.000   22.1    41    8.2   21.1   7.88  .0724    117    1    100.0    5 
 9/12/19   0:55  -67.8  -67.8  -67.8   ---    ---   5.0     W   0.42  15.0     W  -82.3    ---    ---   993.0  0.00  0.00   0.299   0.000   22.1    41    8.2   21.1   7.88  .0724    116    1    100.0    5 
 9/12/19   1:00  -67.8  -67.8  -67.8   ---    ---   5.0     W   0.42  13.0     W  -82.3    ---    ---   993.2  0.00  0.00   0.299   0.000   22.1    41    8.2   20.9   7.88  .0724    114    1    100.0    5 
 9/12/19   1:05  -67.8  -67.8  -67.8   ---    ---   5.0     W   0.42  14.0   WSW  -82.3    ---    ---   993.2  0.00  0.00   0.299   0.000   22.1    41    8.2   20.9   7.88  .0724    117    1    100.0    5 
 9/12/19   1:10  -67.8  -67.8  -67.8   ---    ---   4.0     W   0.33  10.0   WNW  -80.4    ---    ---   993.2  0.00  0.00   0.299   0.000   22.0    41    8.1   20.9   7.89  .0724    117    1    100.0    5 
 9/12/19   1:15  -67.8  -67.8  -67.8   ---    ---   5.0     W   0.42  12.0     W  -82.3    ---    ---   993.5  0.00  0.00   0.299   0.000   21.9    41    8.1   20.8   7.89  .0725    115    1    100.0    5 
 9/12/19   1:20  -67.8  -67.8  -67.8   ---    ---   5.0     W   0.42  13.0     W  -82.3    ---    ---   993.4  0.00  0.00   0.299   0.000   21.9    41    8.1   20.8   7.89  .0725    117    1    100.0    5 
 9/12/19   1:25  -67.8  -67.8  -67.8   ---    ---   3.0     W   0.25  10.0     W  -78.1    ---    ---   993.5  0.00  0.00   0.299   0.000   21.9    41    8.1   20.8   7.89  .0725    116    1    100.0    5 
 9/12/19   1:30  -67.8  -67.8  -67.8   ---    ---   3.0     W   0.25   7.0   WSW  -78.1    ---    ---   993.5  0.00  0.00   0.299   0.000   21.9    41    8.0   20.7   7.89  .0725    117    1    100.0    5 
 9/12/19   1:35  -67.8  -67.8  -67.8   ---    ---   3.0     W   0.25   6.0     W  -78.1    ---    ---   993.5  0.00  0.00   0.299   0.000   21.9    41    8.0   20.7   7.89  .0725    115    1    100.0    5 
 9/12/19   1:40  -67.8  -67.8  -67.8   ---    ---   3.0     W   0.25   6.0   WNW  -78.1    ---    ---   993.5  0.00  0.00   0.299   0.000   21.8    41    8.0   20.7   7.90  .0725    117    1    100.0    5 
 9/12/19   1:45  -67.8  -67.8  -67.8   ---    ---   2.0     W   0.17   6.0     W  -75.0    ---    ---   993.6  0.00  0.00   0.299   0.000   21.8    41    8.0   20.7   7.90  .0725    116    1    100.0    5 
 9/12/19   1:50    ---  -67.8  -67.8   ---    ---   1.0     W   0.08   5.0     W    ---    ---    ---   993.6  0.00  0.00     ---     ---   21.8    41    7.9   20.6   7.90  .0725    115    1    100.0    5 
 9/12/19   1:55    ---  -67.8  -67.8   ---    ---   2.0     W   0.17   5.0     W    ---    ---    ---   993.7  0.00  0.00     ---     ---   21.8    41    7.9   20.6   7.90  .0725    117    1    100.0    5 
 9/12/19   2:00  -67.8  -67.8  -67.8   ---    ---   2.0     W   0.17   5.0     W  -75.0    ---    ---   993.6  0.00  0.00   0.299   0.000   21.7    41    7.9   20.4   7.91  .0725    117    1    100.0    5 
 9/12/19   2:05    ---  -67.8  -67.8   ---    ---   3.0     W   0.25   5.0   WSW    ---    ---    ---   993.7  0.00  0.00     ---     ---   21.7    41    7.9   20.4   7.91  .0725    117    1    100.0    5 
 9/12/19   2:10    ---  -67.8  -67.8   ---    ---   3.0     W   0.25   6.0     W    ---    ---    ---   993.8  0.00  0.00     ---     ---   21.7    41    7.8   20.4   7.91  .0726    117    1    100.0    5 
 9/12/19   2:15  -67.8  -67.8  -67.8   ---    ---   3.0     W   0.25   6.0   WSW  -78.1    ---    ---   993.8  0.00  0.00   0.299   0.000   21.7    41    7.8   20.4   7.91  .0726    117    1    100.0    5 
 9/12/19   2:20  -67.8  -67.8  -67.8   ---    ---   3.0     W   0.25   7.0   WSW  -78.1    ---    ---   993.9  0.00  0.00   0.299   0.000   21.7    41    7.8   20.4   7.91  .0726    116    1    100.0    5 
 9/12/19   2:25  -67.8  -67.8  -67.8   ---    ---   4.0     W   0.33  10.0     W  -80.4    ---    ---   994.1  0.00  0.00   0.299   0.000   21.6    41    7.8   20.3   7.91  .0726    117    1    100.0    5 
 9/12/19   2:30  -67.8  -67.8  -67.8   ---    ---   3.0     W   0.25   8.0   WSW  -78.1    ---    ---   994.2  0.00  0.00   0.299   0.000   21.6    41    7.8   20.3   7.91  .0726    116    1    100.0    5 
 9/12/19   2:35  -67.8  -67.8  -67.8   ---    ---   3.0     W   0.25   7.0   WSW  -78.1    ---    ---   994.3  0.00  0.00   0.299   0.000   21.6    41    7.7   20.2   7.92  .0726    117    1    100.0    5 
 9/12/19   2:40    ---  -67.8  -67.8   ---    ---   4.0   WSW   0.33   9.0   WSW    ---    ---    ---   994.2  0.00  0.00     ---     ---   21.6    41    7.7   20.2   7.92  .0726    117    1    100.0    5 
 9/12/19   2:45    ---    ---    ---   ---    ---   3.0     W   0.25   5.0   WSW    ---    ---    ---   994.1  0.00  0.00     ---     ---   21.6    41    7.7   20.2   7.92  .0726    117    1    100.0    5 
 9/12/19   2:50  -67.8  -67.8  -67.8   ---    ---   2.0   WSW   0.17   5.0   WSW  -75.0    ---    ---   994.0  0.00  0.00   0.299   0.000   21.6    41    7.7   20.2   7.92  .0726    117    1    100.0    5 
 9/12/19   2:55    ---  -67.8  -67.8   ---    ---   3.0     W   0.25   5.0     W    ---    ---    ---   994.0  0.00  0.00     ---     ---   21.6    41    7.7   20.2   7.92  .0726    117    1    100.0    5 
 9/12/19   3:00  -67.8  -67.8  -67.8   ---    ---   3.0     W   0.25   5.0   WSW  -78.1    ---    ---   994.0  0.00  0.00   0.299   0.000   21.6    41    7.7   20.2   7.92  .0726    116    1    100.0    5 
 9/12/19   3:05    ---    ---    ---   ---    ---   2.0     W   0.17   5.0   WSW    ---    ---    ---   994.0  0.00  0.00     ---     ---   21.6    41    7.7   20.2   7.92  .0726    117    1    100.0    5 
 9/12/19   3:10    ---    ---    ---   ---    ---   2.0     W   0.17   6.0     W    ---    ---    ---   994.1  0.00  0.00     ---     ---   21.6    41    7.8   20.3   7.91  .0726    116    1    100.0    5 
 9/12/19   3:15  -67.8  -67.8  -67.8   ---    ---   3.0     W   0.25   6.0   WNW  -78.1    ---    ---   994.1  0.00  0.00   0.299   0.000   21.6    41    7.8   20.3   7.91  .0726    115    1    100.0    5 
 9/12/19   3:20    ---  -67.8  -67.8   ---    ---   3.0     W   0.25   7.0     W    ---    ---    ---   994.0  0.00  0.00     ---     ---   21.6    41    7.8   20.3   7.91  .0726    117    1    100.0    5 
 9/12/19   3:25    ---  -67.8  -67.8   ---    ---   3.0     W   0.25   5.0     W    ---    ---    ---   994.1  0.00  0.00     ---     ---   21.7    41    7.8   20.4   7.91  .0726    116    1    100.0    5 
 9/12/19   3:30    ---  -67.8  -67.8   ---    ---   3.0     W   0.25   5.0   WSW    ---    ---    ---   994.1  0.00  0.00     ---     ---   21.7    41    7.8   20.4   7.91  .0726    117    1    100.0    5 
 9/12/19   3:35  -67.8  -67.8  -67.8   ---    ---   2.0     W   0.17   5.0     W  -75.0    ---    ---   994.0  0.00  0.00   0.299   0.000   21.7    41    7.8   20.4   7.91  .0726    117    1    100.0    5 
 9/12/19   3:40  -67.8  -67.8  -67.8   ---    ---   2.0     W   0.17   4.0     W  -75.0    ---    ---   994.0  0.00  0.00   0.299   0.000   21.7    41    7.9   20.4   7.91  .0726    116    1    100.0    5 
 9/12/19   3:45  -67.8  -67.8  -67.8   ---    ---   3.0     W   0.25   5.0     W  -78.1    ---    ---   994.0  0.00  0.00   0.299   0.000   21.7    41    7.9   20.4   7.91  .0726    117    1    100.0    5 
 9/12/19   3:50  -67.8  -67.8  -67.8   ---    ---   3.0     W   0.25   6.0     W  -78.1    ---    ---   994.0  0.00  0.00   0.299   0.000   21.8    41    8.0   20.7   7.90  .0725    116    1    100.0    5 
 9/12/19   3:55  -67.8  -67.8  -67.8   ---    ---   3.0     W   0.25   5.0     W  -78.1    ---    ---   993.9  0.00  0.00   0.299   0.000   21.9    41    8.0   20.7   7.89  .0725    117    1    100.0    5 
 9/12/19   4:00  -67.8  -67.8  -67.8   ---    ---   3.0     W   0.25   5.0   WSW  -78.1    ---    ---   994.0  0.00  0.00   0.299   0.000   21.9    41    8.0   20.7   7.89  .0725    118    1    100.0    5 
 9/12/19   4:05    ---  -67.8  -67.8   ---    ---   3.0     W   0.25   5.0    NW    ---    ---    ---   994.0  0.00  0.00     ---     ---   21.9    41    8.0   20.7   7.89  .0725    117    1    100.0    5 
 9/12/19   4:10    ---  -67.8  -67.8   ---    ---   3.0     W   0.25   7.0     W    ---    ---    ---   993.9  0.00  0.00     ---     ---   21.9    42    8.4   20.8   8.02  .0725    116    1    100.0    5 
 9/12/19   4:15  -67.8  -67.8  -67.8   ---    ---   3.0     W   0.25   5.0     W  -78.1    ---    ---   993.9  0.00  0.00   0.299   0.000   21.9    42    8.4   20.8   8.02  .0725    117    1    100.0    5 
 9/12/19   4:20  -67.8  -67.8  -67.8   ---    ---   3.0     W   0.25   5.0   WSW  -78.1    ---    ---   994.1  0.00  0.00   0.299   0.000   21.9    42    8.4   20.8   8.02  .0725    116    1    100.0    5 
 9/12/19   4:25  -67.8  -67.8  -67.8   ---    ---   2.0     W   0.17   4.0   WSW  -75.0    ---    ---   994.1  0.00  0.00   0.299   0.000   21.9    42    8.4   20.8   8.02  .0725    117    1    100.0    5 
 9/12/19   4:30  -67.8  -67.8  -67.8   ---    ---   3.0     W   0.25   6.0   WSW  -78.1    ---    ---   994.0  0.00  0.00   0.299   0.000   21.9    42    8.4   20.8   8.02  .0725    117    1    100.0    5 
 9/12/19   4:35  -67.8  -67.8  -67.8   ---    ---   2.0     W   0.17   4.0     W  -75.0    ---    ---   994.1  0.00  0.00   0.299   0.000   21.9    42    8.4   20.8   8.02  .0725    116    1    100.0    5 
 9/12/19   4:40  -67.8  -67.8  -67.8   ---    ---   3.0     W   0.25   5.0     W  -78.1    ---    ---   994.3  0.00  0.00   0.299   0.000   21.9    42    8.4   20.8   8.02  .0725    117    1    100.0    5 
 9/12/19   4:45  -67.8  -67.8  -67.8   ---    ---   3.0     W   0.25   5.0   WSW  -78.1    ---    ---   994.4  0.00  0.00   0.299   0.000   21.9    42    8.4   20.8   8.02  .0725    117    1    100.0    5 
 9/12/19   4:50  -67.8  -67.8  -67.8   ---    ---   3.0     W   0.25   5.0     W  -78.1    ---    ---   994.5  0.00  0.00   0.299   0.000   21.9    42    8.4   20.8   8.02  .0725    116    1    100.0    5 
 9/12/19   4:55  -67.8  -67.8  -67.8   ---    ---   2.0     W   0.17   5.0     W  -75.0    ---    ---   994.6  0.00  0.00   0.299   0.000   22.0    42    8.5   20.9   8.02  .0725    117    1    100.0    5 
 9/12/19   5:00    ---  -67.8  -67.8   ---    ---   2.0     W   0.17   4.0   WNW    ---    ---    ---   994.7  0.00  0.00     ---     ---   22.0    42    8.5   20.9   8.02  .0725    117    1    100.0    5 
 9/12/19   5:05  -67.8  -67.8  -67.8   ---    ---   2.0     W   0.17   5.0     W  -75.0    ---    ---   994.8  0.00  0.00   0.299   0.000   22.0    42    8.5   20.9   8.02  .0725    118    1    100.0    5 
 9/12/19   5:10    ---  -67.8  -67.8   ---    ---   2.0   WNW   0.17   5.0   WNW    ---    ---    ---   995.0  0.00  0.00     ---     ---   22.1    42    8.5   21.0   8.02  .0725    117    1    100.0    5 
 9/12/19   5:15  -67.8  -67.8  -67.8   ---    ---   2.0   WNW   0.17   4.0   WNW  -75.0    ---    ---   995.0  0.00  0.00   0.299   0.000   22.1    42    8.5   21.0   8.02  .0725    117    1    100.0    5 
 9/12/19   5:20  -67.8  -67.8  -67.8   ---    ---   3.0   WNW   0.25   5.0   WNW  -78.1    ---    ---   995.2  0.00  0.00   0.299   0.000   22.1    42    8.5   21.0   8.02  .0725    117    1    100.0    5 
 9/12/19   5:25  -67.8  -67.8  -67.8   ---    ---   3.0   WNW   0.25   5.0    NW  -78.1    ---    ---   995.4  0.00  0.00   0.299   0.000   22.1    42    8.6   21.1   8.01  .0725    116    1    100.0    5 
 9/12/19   5:30  -67.8  -67.8  -67.8   ---    ---   3.0   WNW   0.25   7.0   WNW  -78.1    ---    ---   995.7  0.00  0.00   0.299   0.000   22.1    42    8.6   21.1   8.01  .0726    117    1    100.0    5 
 9/12/19   5:35  -67.8  -67.8  -67.8   ---    ---   4.0    NW   0.33   7.0     W  -80.4    ---    ---   995.8  0.00  0.00   0.299   0.000   22.2    42    8.6   21.2   8.01  .0725    117    1    100.0    5 
 9/12/19   5:40  -67.8  -67.8  -67.8   ---    ---   4.0    NW   0.33  10.0    NW  -80.4    ---    ---   996.1  0.00  0.00   0.299   0.000   22.2    42    8.6   21.2   8.01  .0726    116    1    100.0    5 
 9/12/19   5:45  -67.8  -67.8  -67.8   ---    ---   3.0    NW   0.25   7.0    NW  -78.1    ---    ---   996.3  0.00  0.00   0.299   0.000   22.2    42    8.6   21.2   8.01  .0726    117    1    100.0    5 
 9/12/19   5:50  -67.8  -67.8  -67.8   ---    ---   4.0    NW   0.33  13.0   NNW  -80.4    ---    ---   996.3  0.00  0.00   0.299   0.000   22.2    42    8.7   21.3   8.01  .0726    116    1    100.0    5 
 9/12/19   5:55  -67.8  -67.8  -67.8   ---    ---   4.0    NW   0.33  10.0   WNW  -80.4    ---    ---   996.6  0.00  0.00   0.299   0.000   22.2    42    8.7   21.3   8.01  .0726    117    1    100.0    5 
 9/12/19   6:00  -67.8  -67.8  -67.8   ---    ---   4.0    NW   0.33   9.0    NW  -80.4    ---    ---   997.0  0.00  0.00   0.299   0.000   22.3    42    8.7   21.4   8.01  .0726    117    1    100.0    5 
 9/12/19   6:05  -67.8  -67.8  -67.8   ---    ---   5.0   NNW   0.42  10.0   NNW  -82.3    ---    ---   997.2  0.00  0.00   0.299   0.000   22.3    42    8.7   21.4   8.01  .0726    116    1    100.0    5 
 9/12/19   6:10  -67.8  -67.8  -67.8   ---    ---   5.0    NW   0.42  10.0    NW  -82.3    ---    ---   997.5  0.00  0.00   0.299   0.000   22.3    42    8.7   21.4   8.01  .0726    118    1    100.0    5 
 9/12/19   6:15  -67.8  -67.8  -67.8   ---    ---   4.0    NW   0.33   7.0    NW  -80.4    ---    ---   997.9  0.00  0.00   0.299   0.000   22.3    42    8.7   21.4   8.01  .0727    117    1    100.0    5 
 9/12/19   6:20  -67.8  -67.8  -67.8   ---    ---   4.0    NW   0.33   9.0    NW  -80.4    ---    ---   998.1  0.00  0.00   0.299   0.000   22.3    42    8.8   21.4   8.01  .0727    117    1    100.0    5 
 9/12/19   6:25  -67.8  -67.8  -67.8   ---    ---   4.0   NNW   0.33   7.0    NW  -80.4    ---    ---   998.2  0.00  0.00   0.299   0.000   22.3    42    8.8   21.4   8.01  .0727    117    1    100.0    5 
 9/12/19   6:30  -67.8  -67.8  -67.8   ---    ---   4.0   NNW   0.33   9.0     N  -80.4    ---    ---   998.4  0.00  0.00   0.299   0.000   22.3    42    8.8   21.4   8.01  .0727    117    1    100.0    5 
 9/12/19   6:35  -67.8  -67.8  -67.8   ---    ---   5.0    NW   0.42  12.0   NNW  -82.3    ---    ---   998.7  0.00  0.00   0.299   0.000   22.4    42    8.8   21.6   8.00  .0727    117    1    100.0    5 
 9/12/19   6:40  -67.8  -67.8  -67.8   ---    ---   4.0    NW   0.33   7.0   WNW  -80.4    ---    ---   999.0  0.00  0.00   0.299   0.000   22.4    42    8.8   21.6   8.00  .0727    117    1    100.0    5 
 9/12/19   6:45  -67.8  -67.8  -67.8   ---    ---   4.0    NW   0.33   8.0   WNW  -80.4    ---    ---   999.3  0.00  0.00   0.299   0.000   22.4    42    8.9   21.6   8.00  .0727    117    1    100.0    5 
 9/12/19   6:50  -67.8  -67.8  -67.8   ---    ---   4.0    NW   0.33   8.0   WNW  -80.4    ---    ---   999.5  0.00  0.00   0.299   0.000   22.4    42    8.9   21.6   8.00  .0727    116    1    100.0    5 
 9/12/19   6:55  -67.8  -67.8  -67.8   ---    ---   5.0    NW   0.42   9.0   WNW  -82.3    ---    ---   999.7  0.00  0.00   0.299   0.000   22.4    42    8.9   21.6   8.00  .0728    117    1    100.0    5 
 9/12/19   7:00  -67.8  -67.8  -67.8   ---    ---   4.0    NW   0.33   6.0   NNW  -80.4    ---    ---  1000.0  0.00  0.00   0.299   0.000   22.5    42    8.9   21.7   8.00  .0728    116    1    100.0    5 
 9/12/19   7:05  -67.8  -67.8  -67.8   ---    ---   4.0    NW   0.33   8.0   NNW  -80.4    ---    ---  1000.1  0.00  0.00   0.299   0.000   22.5    42    8.9   21.7   8.00  .0728    117    1    100.0    5 
 9/12/19   7:10  -67.8  -67.8  -67.8   ---    ---   5.0    NW   0.42  16.0   NNW  -82.3    ---    ---  1000.3  0.00  0.00   0.299   0.000   22.5    42    8.9   21.7   8.00  .0728    116    1    100.0    5 
 9/12/19   7:15  -67.8  -67.8  -67.8   ---    ---   5.0    NW   0.42  12.0     W  -82.3    ---    ---  1000.4  0.00  0.00   0.299   0.000   22.5    42    8.9   21.7   8.00  .0728    118    1    100.0    5 
 9/12/19   7:20  -67.8  -67.8  -67.8   ---    ---   4.0    NW   0.33  10.0    NW  -80.4    ---    ---  1000.7  0.00  0.00   0.299   0.000   22.6    42    9.0   21.8   8.00  .0728    117    1    100.0    5 
 9/12/19   7:25  -67.8  -67.8  -67.8   ---    ---   4.0    NW   0.33   9.0    NW  -80.4    ---    ---  1001.0  0.00  0.00   0.299   0.000   22.6    42    9.0   21.8   8.00  .0728    117    1    100.0    5 
 9/12/19   7:30  -67.8  -67.8  -67.8   ---    ---   4.0    NW   0.33   8.0    NW  -80.4    ---    ---  1001.2  0.00  0.00   0.299   0.000   22.6    42    9.0   21.8   8.00  .0728    117    1    100.0    5 
 9/12/19   7:35  -67.8  -67.8  -67.8   ---    ---   3.0    NW   0.25   5.0   NNW  -78.1    ---    ---  1001.5  0.00  0.00   0.299   0.000   22.6    42    9.0   21.9   8.00  .0728    116    1    100.0    5 
 9/12/19   7:40  -67.8  -67.8  -67.8   ---    ---   3.0    NW   0.25   7.0    NW  -78.1    ---    ---  1001.7  0.00  0.00   0.299   0.000   22.7    42    9.1   21.9   7.99  .0728    117    1    100.0    5 
 9/12/19   7:45  -67.8  -67.8  -67.8   ---    ---   3.0    NW   0.25   7.0    NW  -78.1    ---    ---  1002.0  0.00  0.00   0.299   0.000   22.7    42    9.1   22.1   7.99  .0728    117    1    100.0    5 
 9/12/19   7:50  -67.8  -67.8  -67.8   ---    ---   4.0    NW   0.33   9.0    NW  -80.4    ---    ---  1002.2  0.00  0.00   0.299   0.000   22.8    44    9.9   22.2   8.29  .0728    116    1    100.0    5 
 9/12/19   7:55  -67.8  -67.8  -67.8   ---    ---   4.0    NW   0.33   7.0    NW  -80.4    ---    ---  1002.4  0.00  0.00   0.299   0.000   22.8    44    9.9   22.3   8.29  .0728    116    1    100.0    5 
 9/12/19   8:00  -67.8  -67.8  -67.8   ---    ---   3.0    NW   0.25   5.0    NW  -78.1    ---    ---  1002.7  0.00  0.00   0.299   0.000   22.9    43    9.6   22.3   8.12  .0728    117    1    100.0    5 
 9/12/19   8:05  -67.8  -67.8  -67.8   ---    ---   3.0    NW   0.25   6.0   WNW  -78.1    ---    ---  1003.0  0.00  0.00   0.299   0.000   22.9    43    9.7   22.4   8.12  .0728    117    1    100.0    5 
 9/12/19   8:10  -67.8  -67.8  -67.8   ---    ---   3.0    NW   0.25   7.0   WNW  -78.1    ---    ---  1003.3  0.00  0.00   0.299   0.000   23.0    43    9.7   22.5   8.11  .0728    116    1    100.0    5 
 9/12/19   8:15  -67.8  -67.8  -67.8   ---    ---   2.0    NW   0.17   5.0    NW  -75.0    ---    ---  1003.6  0.00  0.00   0.299   0.000   23.1    43    9.8   22.6   8.11  .0728    117    1    100.0    5 
 9/12/19   8:20  -67.8  -67.8  -67.8   ---    ---   1.0    NW   0.08   5.0   NNW  -70.2    ---    ---  1003.9  0.00  0.00   0.299   0.000   23.1    43    9.8   22.6   8.11  .0728    116    1    100.0    5 
 9/12/19   8:25  -67.8  -67.8  -67.8   ---    ---   2.0    NW   0.17   6.0    NW  -75.0    ---    ---  1004.1  0.00  0.00   0.299   0.000   23.2    43    9.9   22.7   8.10  .0728    116    1    100.0    5 
 9/12/19   8:30  -67.8  -67.8  -67.8   ---    ---   3.0    NW   0.25   5.0    NW  -78.1    ---    ---  1004.4  0.00  0.00   0.299   0.000   23.2    43    9.9   22.8   8.10  .0728    117    1    100.0    5 
 9/12/19   8:35    ---  -67.8  -67.8   ---    ---   3.0    NW   0.25  10.0    NW    ---    ---    ---  1004.5  0.00  0.00     ---     ---   23.2    43    9.9   22.8   8.10  .0729    115    1    100.0    5 
 9/12/19   8:40  -67.8  -67.8  -67.8   ---    ---   3.0    NW   0.25   8.0   WNW  -78.1    ---    ---  1004.8  0.00  0.00   0.299   0.000   23.3    42    9.6   22.8   7.97  .0729    116    1    100.0    5 
 9/12/19   8:45  -67.8  -67.8  -67.8   ---    ---   2.0    NW   0.17   6.0    NW  -75.0    ---    ---  1005.2  0.00  0.00   0.299   0.000   23.3    42    9.6   22.8   7.97  .0729    116    1    100.0    5 
 9/12/19   8:50  -67.8  -67.8  -67.8   ---    ---   2.0    NW   0.17   7.0    NW  -75.0    ---    ---  1005.3  0.00  0.00   0.299   0.000   23.3    42    9.7   22.9   7.97  .0729    117    1    100.0    5 
 9/12/19   8:55  -67.8  -67.8  -67.8   ---    ---   2.0    NW   0.17   6.0    NW  -75.0    ---    ---  1005.5  0.00  0.00   0.299   0.000   23.3    42    9.7   22.9   7.97  .0729    117    1    100.0    5 
 9/12/19   9:00    ---  -67.8  -67.8   ---    ---   3.0    NW   0.25   8.0    NW    ---    ---    ---  1005.7  0.00  0.00     ---     ---   23.4    42    9.7   22.9   7.97  .0729    117    1    100.0    5 
 9/12/19   9:05  -67.8  -67.8  -67.8   ---    ---   3.0    NW   0.25   5.0    NW  -78.1    ---    ---  1005.9  0.00  0.00   0.299   0.000   23.4    42    9.8   23.1   7.97  .0729    116    1    100.0    5 
 9/12/19   9:10    ---  -67.8  -67.8   ---    ---   3.0    NW   0.25   6.0   NNW    ---    ---    ---  1006.2  0.00  0.00     ---     ---   23.5    42    9.8   23.1   7.96  .0729    116    1    100.0    5 
 9/12/19   9:15  -67.8  -67.8  -67.8   ---    ---   3.0    NW   0.25   7.0   NNW  -78.1    ---    ---  1006.4  0.00  0.00   0.299   0.000   23.5    42    9.8   23.1   7.96  .0729    117    1    100.0    5 
 9/12/19   9:20  -67.8  -67.8  -67.8   ---    ---   3.0    NW   0.25   7.0   WNW  -78.1    ---    ---  1006.5  0.00  0.00   0.299   0.000   23.6    42    9.9   23.2   7.96  .0729    118    1    100.0    5 
 9/12/19   9:25  -67.8  -67.8  -67.8   ---    ---   3.0    NW   0.25   5.0    NW  -78.1    ---    ---  1006.8  0.00  0.00   0.299   0.000   23.6    41    9.5   23.1   7.77  .0730    117    1    100.0    5 
 9/12/19   9:30  -67.8  -67.8  -67.8   ---    ---   3.0    NW   0.25   5.0   WNW  -78.1    ---    ---  1007.0  0.00  0.00   0.299   0.000   23.6    41    9.5   23.1   7.77  .0730    117    1    100.0    5 
 9/12/19   9:35  -67.8  -67.8  -67.8   ---    ---   3.0    NW   0.25   6.0   NNW  -78.1    ---    ---  1007.2  0.00  0.00   0.299   0.000   23.6    41    9.6   23.2   7.77  .0730    116    1    100.0    5 
 9/12/19   9:40  -67.8  -67.8  -67.8   ---    ---   4.0    NW   0.33   7.0   WNW  -80.4    ---    ---  1007.4  0.00  0.00   0.299   0.000   23.6    42    9.9   23.2   7.96  .0730    116    1    100.0    5 
 9/12/19   9:45  -67.8  -67.8  -67.8   ---    ---   3.0    NW   0.25   6.0   NNW  -78.1    ---    ---  1007.6  0.00  0.00   0.299   0.000   23.7    41    9.6   23.2   7.77  .0730    117    1    100.0    5 
 9/12/19   9:50  -67.8  -67.8  -67.8   ---    ---   3.0    NW   0.25   7.0    NW  -78.1    ---    ---  1007.9  0.00  0.00   0.299   0.000   23.8    41    9.8   23.4   7.75  .0730    117    1    100.0    5 
 9/12/19   9:55  -67.8  -67.8  -67.8   ---    ---   3.0    NW   0.25   6.0    NW  -78.1    ---    ---  1008.1  0.00  0.00   0.299   0.000   24.0    41    9.9   23.6   7.75  .0729    117    1    100.0    5 
 9/12/19  10:00  -67.8  -67.8  -67.8   ---    ---   4.0    NW   0.33   7.0    NW  -80.4    ---    ---  1008.3  0.00  0.00   0.299   0.000   24.1    41   10.0   23.7   7.75  .0729    117    1    100.0    5 
 9/12/19  10:05  -67.8  -67.8  -67.8   ---    ---   3.0    NW   0.25   6.0   NNW  -78.1    ---    ---  1008.6  0.00  0.00   0.299   0.000   24.2    41   10.1   23.8   7.75  .0729    116    1    100.0    5 
 9/12/19  10:10  -67.8  -67.8  -67.8   ---    ---   3.0    NW   0.25   6.0   WNW  -78.1    ---    ---  1008.7  0.00  0.00   0.299   0.000   24.3    41   10.2   23.8   7.75  .0729    117    1    100.0    5 
 9/12/19  10:15  -67.8  -67.8  -67.8   ---    ---   3.0    NW   0.25   6.0    NW  -78.1    ---    ---  1009.0  0.00  0.00   0.299   0.000   24.3    41   10.2   23.8   7.75  .0729    117    1    100.0    5 
 9/12/19  10:20  -67.8  -67.8  -67.8   ---    ---   3.0    NW   0.25   6.0   WNW  -78.1    ---    ---  1009.1  0.00  0.00   0.299   0.000   24.3    41   10.2   23.9   7.75  .0729    117    1    100.0    5 
 9/12/19  10:25  -67.8  -67.8  -67.8   ---    ---   3.0   NNW   0.25   6.0    NW  -78.1    ---    ---  1009.3  0.00  0.00   0.299   0.000   24.4    41   10.3   23.9   7.75  .0729    118    1    100.0    5 
 9/12/19  10:30  -67.8  -67.8  -67.8   ---    ---   3.0    NW   0.25   7.0    NW  -78.1    ---    ---  1009.6  0.00  0.00   0.299   0.000   24.4    41   10.3   23.9   7.75  .0729    117    1    100.0    5 
 9/12/19  10:35  -67.8  -67.8  -67.8   ---    ---   3.0    NW   0.25   6.0   WNW  -78.1    ---    ---  1009.7  0.00  0.00   0.299   0.000   24.4    41   10.3   24.0   7.75  .0729    117    1    100.0    5 
 9/12/19  10:40  -67.8  -67.8  -67.8   ---    ---   3.0    NW   0.25   8.0   WNW  -78.1    ---    ---  1009.9  0.00  0.00   0.299   0.000   24.4    41   10.3   24.0   7.75  .0729    116    1    100.0    5 
 9/12/19  10:45  -67.8  -67.8  -67.8   ---    ---   3.0    NW   0.25   6.0   WNW  -78.1    ---    ---  1010.0  0.00  0.00   0.299   0.000   24.4    41   10.3   24.0   7.75  .0729    116    1    100.0    5 
 9/12/19  10:50  -67.8  -67.8  -67.8   ---    ---   3.0    NW   0.25   5.0    NW  -78.1    ---    ---  1010.1  0.00  0.00   0.299   0.000   24.5    41   10.4   24.1   7.75  .0729    117    1    100.0    5 
 9/12/19  10:55  -67.8  -67.8  -67.8   ---    ---   3.0    NW   0.25   6.0   WNW  -78.1    ---    ---  1010.1  0.00  0.00   0.299   0.000   24.5    41   10.4   24.1   7.75  .0729    117    1    100.0    5 
 9/12/19  11:00  -67.8  -67.8  -67.8   ---    ---   4.0    NW   0.33   7.0    NW  -80.4    ---    ---  1010.3  0.00  0.00   0.299   0.000   24.6    41   10.4   24.1   7.75  .0729    116    1    100.0    5 
 9/12/19  11:05  -67.8  -67.8  -67.8   ---    ---   3.0    NW   0.25   6.0    NW  -78.1    ---    ---  1010.4  0.00  0.00   0.299   0.000   24.6    41   10.4   24.1   7.75  .0729    117    1    100.0    5 
 9/12/19  11:10  -67.8  -67.8  -67.8   ---    ---   3.0    NW   0.25   7.0   WNW  -78.1    ---    ---  1010.6  0.00  0.00   0.299   0.000   24.6    41   10.4   24.1   7.75  .0729    116    1    100.0    5 
 9/12/19  11:15  -67.8  -67.8  -67.8   ---    ---   3.0    NW   0.25   6.0   NNW  -78.1    ---    ---  1010.8  0.00  0.00   0.299   0.000   24.6    41   10.5   24.2   7.75  .0729    117    1    100.0    5 
 9/12/19  11:20  -67.8  -67.8  -67.8   ---    ---   4.0    NW   0.33   7.0    NW  -80.4    ---    ---  1010.9  0.00  0.00   0.299   0.000   24.6    41   10.5   24.2   7.75  .0729    116    1    100.0    5 
 9/12/19  11:25  -67.8  -67.8  -67.8   ---    ---   3.0    NW   0.25   6.0   NNW  -78.1    ---    ---  1011.1  0.00  0.00   0.299   0.000   24.6    41   10.5   24.2   7.75  .0730    117    1    100.0    5 
 9/12/19  11:30  -67.8  -67.8  -67.8   ---    ---   3.0    NW   0.25   5.0     N  -78.1    ---    ---  1011.2  0.00  0.00   0.299   0.000   24.7    41   10.5   24.2   7.75  .0730    117    1    100.0    5 
 9/12/19  11:35  -67.8  -67.8  -67.8   ---    ---   3.0    NW   0.25   6.0   NNW  -78.1    ---    ---  1011.4  0.00  0.00   0.299   0.000   24.7    41   10.5   24.2   7.75  .0730    117    1    100.0    5 
 9/12/19  11:40  -67.8  -67.8  -67.8   ---    ---   3.0   NNW   0.25   6.0     N  -78.1    ---    ---  1011.6  0.00  0.00   0.299   0.000   24.7    41   10.5   24.2   7.75  .0730    117    1    100.0    5 
 9/12/19  11:45  -67.8  -67.8  -67.8   ---    ---   4.0    NW   0.33   7.0   WNW  -80.4    ---    ---  1011.6  0.00  0.00   0.299   0.000   24.7    41   10.6   24.3   7.75  .0730    117    1    100.0    5 
 9/12/19  11:50  -67.8  -67.8  -67.8   ---    ---   3.0    NW   0.25   5.0   NNW  -78.1    ---    ---  1011.9  0.00  0.00   0.299   0.000   24.7    41   10.6   24.3   7.75  .0730    116    1    100.0    5 
 9/12/19  11:55  -67.8  -67.8  -67.8   ---    ---   3.0    NW   0.25   6.0   WNW  -78.1    ---    ---  1012.1  0.00  0.00   0.299   0.000   24.7    40   10.2   24.2   7.62  .0730    117    1    100.0    5 
 9/12/19  12:00  -67.8  -67.8  -67.8   ---    ---   3.0    NW   0.25   5.0    NW  -78.1    ---    ---  1012.1  0.00  0.00   0.299   0.000   24.8    40   10.3   24.3   7.62  .0730    117    1    100.0    5 
 9/12/19  12:05  -67.8  -67.8  -67.8   ---    ---   3.0    NW   0.25   5.0    NW  -78.1    ---    ---  1012.3  0.00  0.00   0.299   0.000   24.8    40   10.3   24.4   7.62  .0730     87    1     76.3    5 
 9/12/19  12:10  -67.8  -67.8  -67.8   ---    ---   3.0    NW   0.25   5.0    NW  -78.1    ---    ---  1012.5  0.00  0.00   0.299   0.000   24.8    40   10.3   24.4   7.62  .0730    116    1    100.0    5 
 9/12/19  12:15  -67.8  -67.8  -67.8   ---    ---   3.0    NW   0.25   5.0    NW  -78.1    ---    ---  1012.7  0.00  0.00   0.299   0.000   24.9    40   10.4   24.4   7.61  .0730    116    1    100.0    5 
 9/12/19  12:20  -67.8  -67.8  -67.8   ---    ---   3.0    NW   0.25   5.0    NW  -78.1    ---    ---  1012.8  0.00  0.00   0.299   0.000   24.9    40   10.4   24.4   7.61  .0730    117    1    100.0    5 
 9/12/19  12:25  -67.8  -67.8  -67.8   ---    ---   3.0    NW   0.25   5.0     N  -78.1    ---    ---  1012.8  0.00  0.00   0.299   0.000   24.9    40   10.4   24.4   7.61  .0730    117    1    100.0    5 
 9/12/19  12:30  -67.8  -67.8  -67.8   ---    ---   2.0    NW   0.17   5.0    NW  -75.0    ---    ---  1013.0  0.00  0.00   0.299   0.000   24.9    40   10.4   24.4   7.61  .0730    117    1    100.0    5 
 9/12/19  12:35  -67.8  -67.8  -67.8   ---    ---   3.0    NW   0.25   6.0   NNW  -78.1    ---    ---  1013.1  0.00  0.00   0.299   0.000   24.8    40   10.3   24.4   7.62  .0731    117    1    100.0    5 
 9/12/19  12:40  -67.8  -67.8  -67.8   ---    ---   2.0    NW   0.17   5.0   WNW  -75.0    ---    ---  1013.2  0.00  0.00   0.299   0.000   24.8    40   10.3   24.4   7.62  .0731    116    1    100.0    5 
 9/12/19  12:45  -67.8  -67.8  -67.8   ---    ---   3.0    NW   0.25   5.0    NW  -78.1    ---    ---  1013.4  0.00  0.00   0.299   0.000   24.8    40   10.3   24.4   7.62  .0731    117    1    100.0    5 
 9/12/19  12:50  -67.8  -67.8  -67.8   ---    ---   3.0    NW   0.25   6.0    NW  -78.1    ---    ---  1013.5  0.00  0.00   0.299   0.000   24.8    40   10.3   24.4   7.62  .0731    116    1    100.0    5 
 9/12/19  12:55  -67.8  -67.8  -67.8   ---    ---   3.0    NW   0.25   6.0   WNW  -78.1    ---    ---  1013.6  0.00  0.00   0.299   0.000   24.8    40   10.3   24.3   7.62  .0731    117    1    100.0    5 
 9/12/19  13:00  -67.8  -67.8  -67.8   ---    ---   3.0    NW   0.25   5.0   WNW  -78.1    ---    ---  1013.7  0.00  0.00   0.299   0.000   24.8    40   10.3   24.3   7.62  .0731    116    1    100.0    5 
 9/12/19  13:05  -67.8  -67.8  -67.8   ---    ---   3.0    NW   0.25   6.0    NW  -78.1    ---    ---  1013.9  0.00  0.00   0.299   0.000   24.8    40   10.3   24.4   7.62  .0731    117    1    100.0    5 
 9/12/19  13:10  -67.8  -67.8  -67.8   ---    ---   3.0    NW   0.25   7.0   NNW  -78.1    ---    ---  1014.0  0.00  0.00   0.299   0.000   24.8    40   10.3   24.4   7.62  .0731    117    1    100.0    5 
 9/12/19  13:15  -67.8  -67.8  -67.8   ---    ---   2.0    NW   0.17   6.0   NNW  -75.0    ---    ---  1014.1  0.00  0.00   0.299   0.000   24.8    40   10.3   24.4   7.62  .0731    117    1    100.0    5 
 9/12/19  13:20  -67.8  -67.8  -67.8   ---    ---   3.0    NW   0.25   9.0    NW  -78.1    ---    ---  1014.3  0.00  0.00   0.299   0.000   24.8    40   10.3   24.4   7.62  .0732    117    1    100.0    5 
 9/12/19  13:25  -67.8  -67.8  -67.8   ---    ---   3.0    NW   0.25   6.0   WNW  -78.1    ---    ---  1014.5  0.00  0.00   0.299   0.000   24.8    40   10.3   24.4   7.62  .0732    116    1    100.0    5 
 9/12/19  13:30  -67.8  -67.8  -67.8   ---    ---   3.0    NW   0.25   6.0    NW  -78.1    ---    ---  1014.5  0.00  0.00   0.299   0.000   24.8    40   10.3   24.3   7.62  .0732    117    1    100.0    5 
 9/12/19  13:35  -67.8  -67.8  -67.8   ---    ---   3.0    NW   0.25   5.0    NW  -78.1    ---    ---  1014.7  0.00  0.00   0.299   0.000   24.8    40   10.3   24.3   7.62  .0732    116    1    100.0    5 
 9/12/19  13:40  -67.8  -67.8  -67.8   ---    ---   4.0    NW   0.33   6.0   NNW  -80.4    ---    ---  1014.8  0.00  0.00   0.299   0.000   24.8    40   10.3   24.3   7.62  .0732    117    1    100.0    5 
 9/12/19  13:45  -67.8  -67.8  -67.8   ---    ---   3.0    NW   0.25   5.0    NW  -78.1    ---    ---  1015.0  0.00  0.00   0.299   0.000   24.8    40   10.3   24.3   7.62  .0732    117    1    100.0    5 
 9/12/19  13:50  -67.8  -67.8  -67.8   ---    ---   3.0    NW   0.25   6.0   NNW  -78.1    ---    ---  1015.2  0.00  0.00   0.299   0.000   24.8    40   10.3   24.3   7.62  .0732    116    1    100.0    5 
 9/12/19  13:55  -67.8  -67.8  -67.8   ---    ---   4.0    NW   0.33   5.0    NW  -80.4    ---    ---  1015.4  0.00  0.00   0.299   0.000   24.8    40   10.3   24.3   7.62  .0732    115    1    100.0    5 
 9/12/19  14:00  -67.8  -67.8  -67.8   ---    ---   2.0    NW   0.17   4.0    NW  -75.0    ---    ---  1015.6  0.00  0.00   0.299   0.000   24.8    40   10.3   24.3   7.62  .0733    117    1    100.0    5 
 9/12/19  14:05  -67.8  -67.8  -67.8   ---    ---   2.0    NW   0.17   6.0   NNW  -75.0    ---    ---  1015.8  0.00  0.00   0.299   0.000   24.8    40   10.3   24.3   7.62  .0733    117    1    100.0    5 
 9/12/19  14:10  -67.8  -67.8  -67.8   ---    ---   3.0    NW   0.25   5.0   NNW  -78.1    ---    ---  1015.9  0.00  0.00   0.299   0.000   24.8    40   10.3   24.4   7.62  .0733    117    1    100.0    5 
 9/12/19  14:15  -67.8  -67.8  -67.8   ---    ---   3.0    NW   0.25   6.0    NW  -78.1    ---    ---  1016.0  0.00  0.00   0.299   0.000   24.8    40   10.3   24.3   7.62  .0733    117    1    100.0    5 
 9/12/19  14:20  -67.8  -67.8  -67.8   ---    ---   2.0   NNW   0.17   5.0    NW  -75.0    ---    ---  1016.1  0.00  0.00   0.299   0.000   24.8    40   10.3   24.4   7.62  .0733    116    1    100.0    5 
 9/12/19  14:25  -67.8  -67.8  -67.8   ---    ---   3.0   NNW   0.25   5.0   NNW  -78.1    ---    ---  1016.3  0.00  0.00   0.299   0.000   24.8    40   10.3   24.4   7.62  .0733    117    1    100.0    5 
 9/12/19  14:30  -67.8  -67.8  -67.8   ---    ---   3.0    NW   0.25   6.0   NNW  -78.1    ---    ---  1016.4  0.00  0.00   0.299   0.000   24.8    40   10.3   24.3   7.62  .0733    117    1    100.0    5 
 9/12/19  14:35  -67.8  -67.8  -67.8   ---    ---   3.0   NNW   0.25   6.0   NNW  -78.1    ---    ---  1016.4  0.00  0.00   0.299   0.000   24.8    40   10.3   24.3   7.62  .0733    117    1    100.0    5 
 9/12/19  14:40  -67.8  -67.8  -67.8   ---    ---   2.0    NW   0.17   5.0   NNW  -75.0    ---    ---  1016.5  0.00  0.00   0.299   0.000   24.8    40   10.3   24.3   7.62  .0733    117    1    100.0    5 
 9/12/19  14:45  -67.8  -67.8  -67.8   ---    ---   3.0    NW   0.25   5.0    NW  -78.1    ---    ---  1016.7  0.00  0.00   0.299   0.000   24.8    39    9.9   24.3   7.52  .0734    116    1    100.0    5 
 9/12/19  14:50  -67.8  -67.8  -67.8   ---    ---   3.0    NW   0.25   5.0    NW  -78.1    ---    ---  1016.8  0.00  0.00   0.299   0.000   24.8    39    9.9   24.3   7.52  .0734    117    1    100.0    5 
 9/12/19  14:55  -67.8  -67.8  -67.8   ---    ---   3.0   NNW   0.25   5.0    NW  -78.1    ---    ---  1017.0  0.00  0.00   0.299   0.000   24.7    39    9.8   24.2   7.52  .0734    117    1    100.0    5 
 9/12/19  15:00  -67.8  -67.8  -67.8   ---    ---   3.0    NW   0.25   6.0    NW  -78.1    ---    ---  1017.1  0.00  0.00   0.299   0.000   24.7    39    9.8   24.2   7.52  .0734    116    1    100.0    5 
 9/12/19  15:05  -67.8  -67.8  -67.8   ---    ---   3.0    NW   0.25   5.0    NW  -78.1    ---    ---  1017.2  0.00  0.00   0.299   0.000   24.7    39    9.8   24.2   7.52  .0734    114    1    100.0    5 
 9/12/19  15:10  -67.8  -67.8  -67.8   ---    ---   2.0    NW   0.17   4.0    NW  -75.0    ---    ---  1017.4  0.00  0.00   0.299   0.000   24.8    39    9.9   24.3   7.52  .0734    115    1    100.0    5 
 9/12/19  15:15  -67.8  -67.8  -67.8   ---    ---   1.0    NW   0.08   5.0   NNW  -70.2    ---    ---  1017.5  0.00  0.00   0.299   0.000   24.8    39    9.9   24.3   7.52  .0734    117    1    100.0    5 
 9/12/19  15:20  -67.8  -67.8  -67.8   ---    ---   2.0    NW   0.17   5.0   WNW  -75.0    ---    ---  1017.7  0.00  0.00   0.299   0.000   24.8    39    9.9   24.3   7.52  .0734    117    1    100.0    5 
 9/12/19  15:25  -67.8  -67.8  -67.8   ---    ---   2.0    NW   0.17   5.0   NNW  -75.0    ---    ---  1017.9  0.00  0.00   0.299   0.000   24.8    39    9.9   24.3   7.52  .0734    116    1    100.0    5 
 9/12/19  15:30  -67.8  -67.8  -67.8   ---    ---   2.0    NW   0.17   4.0   NNW  -75.0    ---    ---  1018.1  0.00  0.00   0.299   0.000   24.8    39    9.9   24.3   7.52  .0735    116    1    100.0    5 
 9/12/19  15:35  -67.8  -67.8  -67.8   ---    ---   2.0    NW   0.17   4.0    NW  -75.0    ---    ---  1018.2  0.00  0.00   0.299   0.000   24.8    38    9.5   24.3   7.32  .0735    117    1    100.0    5 
 9/12/19  15:40  -67.8  -67.8  -67.8   ---    ---   1.0    NW   0.08   4.0    NW  -70.2    ---    ---  1018.5  0.00  0.00   0.299   0.000   24.8    38    9.5   24.3   7.32  .0735    118    1    100.0    5 
 9/12/19  15:45  -67.8  -67.8  -67.8   ---    ---   1.0    NW   0.08   4.0    NW  -70.2    ---    ---  1018.6  0.00  0.00   0.299   0.000   24.8    38    9.5   24.3   7.32  .0735    117    1    100.0    5 
 9/12/19  15:50  -67.8  -67.8  -67.8   ---    ---   2.0    NW   0.17   4.0    NW  -75.0    ---    ---  1018.7  0.00  0.00   0.299   0.000   24.7    38    9.4   24.2   7.32  .0735    117    1    100.0    5 
 9/12/19  15:55  -67.8  -67.8  -67.8   ---    ---   1.0   NNW   0.08   4.0     N  -70.2    ---    ---  1018.8  0.00  0.00   0.299   0.000   24.8    39    9.9   24.3   7.52  .0735    117    1    100.0    5 
 9/12/19  16:00  -67.8  -67.8  -67.8   ---    ---   1.0    NW   0.08   4.0   NNW  -70.2    ---    ---  1019.0  0.00  0.00   0.299   0.000   24.7    39    9.8   24.2   7.52  .0735    117    1    100.0    5 
 9/12/19  16:05  -67.8  -67.8  -67.8   ---    ---   0.0    NW   0.00   3.0    NW  -67.7    ---    ---  1019.0  0.00  0.00   0.299   0.000   24.7    39    9.8   24.2   7.52  .0736    116    1    100.0    5 
 9/12/19  16:10  -67.8  -67.8  -67.8   ---    ---   0.0    NW   0.00   3.0   WNW  -67.7    ---    ---  1019.1  0.00  0.00   0.299   0.000   24.7    39    9.8   24.2   7.52  .0736    116    1    100.0    5 
 9/12/19  16:15  -67.8  -67.8  -67.8   ---    ---   0.0   ---   0.00   0.0   ---  -67.7    ---    ---  1019.2  0.00  0.00   0.299   0.000   24.7    39    9.8   24.2   7.52  .0736    117    1    100.0    5 
 9/12/19  16:20  -67.8  -67.8  -67.8   ---    ---   0.0   WNW   0.00   2.0   WNW  -67.7    ---    ---  1019.4  0.00  0.00   0.299   0.000   24.7    39    9.8   24.2   7.52  .0736    115    1    100.0    5 
 9/12/19  16:25  -67.8  -67.8  -67.8   ---    ---   0.0   ---   0.00   0.0   ---  -67.7    ---    ---  1019.6  0.00  0.00   0.299   0.000   24.7    39    9.8   24.2   7.52  .0736    116    1    100.0    5 
 9/12/19  16:30  -67.8  -67.8  -67.8   ---    ---   0.0   ---   0.00   0.0   ---  -67.7    ---    ---  1019.7  0.00  0.00   0.299   0.000   24.7    39    9.8   24.2   7.52  .0736    117    1    100.0    5 
 9/12/19  16:35  -67.8  -67.8  -67.8   ---    ---   0.0   ---   0.00   0.0   ---  -67.7    ---    ---  1019.8  0.00  0.00   0.299   0.000   24.7    39    9.8   24.2   7.52  .0736    116    1    100.0    5 
 9/12/19  16:40  -67.8  -67.8  -67.8   ---    ---   0.0   ---   0.00   0.0   ---  -67.7    ---    ---  1019.9  0.00  0.00   0.299   0.000   24.7    39    9.8   24.2   7.52  .0736    117    1    100.0    5 
 9/12/19  16:45  -67.8  -67.8  -67.8   ---    ---   0.0   ---   0.00   0.0   ---  -67.7    ---    ---  1020.1  0.00  0.00   0.299   0.000   24.7    39    9.8   24.2   7.52  .0736    118    1    100.0    5 
 9/12/19  16:50  -67.8  -67.8  -67.8   ---    ---   0.0   ---   0.00   0.0   ---  -67.7    ---    ---  1020.3  0.00  0.00   0.299   0.000   24.7    39    9.8   24.2   7.52  .0736    117    1    100.0    5 
 9/12/19  16:55  -67.8  -67.8  -67.8   ---    ---   0.0   ---   0.00   0.0   ---  -67.7    ---    ---  1020.4  0.00  0.00   0.299   0.000   24.7    39    9.8   24.2   7.52  .0737    117    1    100.0    5 
 9/12/19  17:00  -67.8  -67.8  -67.8   ---    ---   0.0   ---   0.00   0.0   ---  -67.7    ---    ---  1020.5  0.00  0.00   0.299   0.000   24.7    39    9.8   24.2   7.52  .0737    116    1    100.0    5 
 9/12/19  17:05  -67.8  -67.8  -67.8   ---    ---   0.0   WNW   0.00   3.0   WNW  -67.7    ---    ---  1020.6  0.00  0.00   0.299   0.000   24.7    39    9.8   24.2   7.52  .0737    116    1    100.0    5 
 9/12/19  17:10  -67.8  -67.8  -67.8   ---    ---   0.0   ---   0.00   0.0   ---  -67.7    ---    ---  1020.7  0.00  0.00   0.299   0.000   24.7    39    9.8   24.2   7.52  .0737    117    1    100.0    5 
 9/12/19  17:15  -67.8  -67.8  -67.8   ---    ---   0.0   ---   0.00   0.0   ---  -67.7    ---    ---  1020.8  0.00  0.00   0.299   0.000   24.7    39    9.8   24.2   7.52  .0737    116    1    100.0    5 
 9/12/19  17:20  -67.8  -67.8  -67.8   ---    ---   0.0   ---   0.00   0.0   ---  -67.7    ---    ---  1021.0  0.00  0.00   0.299   0.000   24.7    39    9.8   24.2   7.52  .0737    114    1    100.0    5 
 9/12/19  17:25  -67.8  -67.8  -67.8   ---    ---   0.0   ---   0.00   0.0   ---  -67.7    ---    ---  1021.1  0.00  0.00   0.299   0.000   24.7    39    9.8   24.2   7.52  .0737    117    1    100.0    5 
 9/12/19  17:30  -67.8  -67.8  -67.8   ---    ---   0.0   ---   0.00   0.0   ---  -67.7    ---    ---  1021.2  0.00  0.00   0.299   0.000   24.8    39    9.9   24.3   7.52  .0737    117    1    100.0    5 
 9/12/19  17:35  -67.8  -67.8  -67.8   ---    ---   0.0   ---   0.00   0.0   ---  -67.7    ---    ---  1021.3  0.00  0.00   0.299   0.000   24.8    39    9.9   24.3   7.52  .0737    116    1    100.0    5 
 9/12/19  17:40  -67.8  -67.8  -67.8   ---    ---   0.0   ---   0.00   0.0   ---  -67.7    ---    ---  1021.4  0.00  0.00   0.299   0.000   24.8    39    9.9   24.3   7.52  .0737    116    1    100.0    5 
 9/12/19  17:45  -67.8  -67.8  -67.8   ---    ---   0.0   ---   0.00   0.0   ---  -67.7    ---    ---  1021.6  0.00  0.00   0.299   0.000   24.7    39    9.8   24.2   7.52  .0737    117    1    100.0    5 
 9/12/19  17:50  -67.8  -67.8  -67.8   ---    ---   0.0   ---   0.00   0.0   ---  -67.7    ---    ---  1021.7  0.00  0.00   0.299   0.000   24.8    39    9.9   24.3   7.52  .0737    118    1    100.0    5 
 9/12/19  17:55  -67.8  -67.8  -67.8   ---    ---   0.0   ---   0.00   0.0   ---  -67.7    ---    ---  1021.7  0.00  0.00   0.299   0.000   24.8    39    9.9   24.3   7.52  .0737    117    1    100.0    5 
 9/12/19  18:00  -67.8  -67.8  -67.8   ---    ---   0.0   ---   0.00   0.0   ---  -67.7    ---    ---  1021.8  0.00  0.00   0.299   0.000   24.8    39    9.9   24.3   7.52  .0737    117    1    100.0    5 
 9/12/19  18:05  -67.8  -67.8  -67.8   ---    ---   0.0   ---   0.00   0.0   ---  -67.7    ---    ---  1021.9  0.00  0.00   0.299   0.000   24.8    39    9.9   24.3   7.52  .0737    116    1    100.0    5 
 9/12/19  18:10  -67.8  -67.8  -67.8   ---    ---   0.0   ---   0.00   0.0   ---  -67.7    ---    ---  1022.0  0.00  0.00   0.299   0.000   24.8    39    9.9   24.3   7.52  .0738    117    1    100.0    5 
 9/12/19  18:15  -67.8  -67.8  -67.8   ---    ---   0.0   ---   0.00   0.0   ---  -67.7    ---    ---  1022.3  0.00  0.00   0.299   0.000   24.8    39    9.9   24.3   7.52  .0738    117    1    100.0    5 
 9/12/19  18:20  -67.8  -67.8  -67.8   ---    ---   0.0   ---   0.00   0.0   ---  -67.7    ---    ---  1022.4  0.00  0.00   0.299   0.000   24.8    39    9.9   24.3   7.52  .0738    116    1    100.0    5 
 9/12/19  18:25  -67.8  -67.8  -67.8   ---    ---   0.0   ---   0.00   0.0   ---  -67.7    ---    ---  1022.6  0.00  0.00   0.299   0.000   24.8    40   10.3   24.3   7.62  .0738    116    1    100.0    5 
 9/12/19  18:30  -67.8  -67.8  -67.8   ---    ---   0.0   ---   0.00   0.0   ---  -67.7    ---    ---  1022.8  0.00  0.00   0.299   0.000   24.7    40   10.2   24.2   7.62  .0738    117    1    100.0    5 
 9/12/19  18:35  -67.8  -67.8  -67.8   ---    ---   0.0   ---   0.00   0.0   ---  -67.7    ---    ---  1022.7  0.00  0.00   0.299   0.000   24.7    40   10.2   24.2   7.62  .0738    117    1    100.0    5 
 9/12/19  18:40  -67.8  -67.8  -67.8   ---    ---   0.0   ---   0.00   0.0   ---  -67.7    ---    ---  1022.9  0.00  0.00   0.299   0.000   24.7    40   10.2   24.2   7.62  .0738    117    1    100.0    5 
 9/12/19  18:45    ---  -67.8  -67.8   ---    ---   0.0   ---   0.00   0.0   ---    ---    ---    ---  1023.0  0.00  0.00     ---     ---   24.7    40   10.2   24.2   7.62  .0738    117    1    100.0    5 
 9/12/19  18:50    ---  -67.8  -67.8   ---    ---   0.0   ---   0.00   0.0   ---    ---    ---    ---  1023.0  0.00  0.00     ---     ---   24.7    40   10.2   24.2   7.62  .0738    117    1    100.0    5 
 9/12/19  18:55    ---  -67.8  -67.8   ---    ---   0.0   ---   0.00   0.0   ---    ---    ---    ---  1023.1  0.00  0.00     ---     ---   24.7    40   10.2   24.2   7.62  .0738    117    1    100.0    5 
 9/12/19  19:00    ---  -67.8  -67.8   ---    ---   0.0   ---   0.00   0.0   ---    ---    ---    ---  1023.2  0.00  0.00     ---     ---   24.7    39    9.8   24.2   7.52  .0739    115    1    100.0    5 
 9/12/19  19:05    ---  -67.8  -67.8   ---    ---   0.0   ---   0.00   0.0   ---    ---    ---    ---  1023.4  0.00  0.00     ---     ---   24.7    39    9.8   24.2   7.52  .0739    117    1    100.0    5 
 9/12/19  19:10    ---    ---    ---   ---    ---   0.0   ---   0.00   0.0   ---    ---    ---    ---  1023.6  0.00  0.00     ---     ---   24.7    39    9.8   24.2   7.52  .0739    116    1    100.0    5 
 9/12/19  19:15    ---    ---    ---   ---    ---   0.0   ---   0.00   0.0   ---    ---    ---    ---  1023.7  0.00  0.00     ---     ---   24.7    39    9.8   24.2   7.52  .0739    117    1    100.0    5 
 9/12/19  19:20    ---    ---    ---   ---    ---   0.0   ---   0.00   0.0   ---    ---    ---    ---  1023.8  0.00  0.00     ---     ---   24.7    39    9.8   24.2   7.52  .0739    116    1    100.0    5 
 9/12/19  19:25    ---    ---    ---   ---    ---   0.0   ---   0.00   0.0   ---    ---    ---    ---  1023.8  0.00  0.00     ---     ---   24.7    39    9.8   24.2   7.52  .0739    116    1    100.0    5 
 9/12/19  19:30    ---    ---    ---   ---    ---   0.0   ---   0.00   0.0   ---    ---    ---    ---  1023.8  0.00  0.00     ---     ---   24.7    39    9.8   24.2   7.52  .0739    117    1    100.0    5 
 9/12/19  19:35    ---    ---    ---   ---    ---   0.0   ---   0.00   0.0   ---    ---    ---    ---  1023.8  0.00  0.00     ---     ---   24.7    39    9.8   24.2   7.52  .0739    116    1    100.0    5 
 9/12/19  19:40    ---    ---    ---   ---    ---   0.0   ---   0.00   0.0   ---    ---    ---    ---  1023.8  0.00  0.00     ---     ---   24.7    39    9.8   24.2   7.52  .0739    117    1    100.0    5 
 9/12/19  19:45    ---    ---    ---   ---    ---   0.0   ---   0.00   0.0   ---    ---    ---    ---  1023.8  0.00  0.00     ---     ---   24.7    39    9.8   24.2   7.52  .0739    115    1    100.0    5 
 9/12/19  19:50    ---    ---    ---   ---    ---   0.0   ---   0.00   0.0   ---    ---    ---    ---  1023.9  0.00  0.00     ---     ---   24.7    39    9.8   24.2   7.52  .0739    117    1    100.0    5 
 9/12/19  19:55    ---    ---    ---   ---    ---   0.0   ---   0.00   0.0   ---    ---    ---    ---  1024.0  0.00  0.00     ---     ---   24.7    39    9.8   24.2   7.52  .0739    115    1    100.0    5 
 9/12/19  20:00    ---    ---    ---   ---    ---   0.0   ---   0.00   0.0   ---    ---    ---    ---  1024.0  0.00  0.00     ---     ---   24.7    40   10.2   24.2   7.62  .0739    115    1    100.0    5 
 9/12/19  20:05    ---    ---    ---   ---    ---   0.0   ---   0.00   0.0   ---    ---    ---    ---  1024.1  0.00  0.00     ---     ---   24.7    40   10.2   24.2   7.62  .0739    117    1    100.0    5 
 9/12/19  20:10    ---    ---    ---   ---    ---   0.0   ---   0.00   0.0   ---    ---    ---    ---  1024.1  0.00  0.00     ---     ---   24.6    40   10.1   24.1   7.62  .0739    117    1    100.0    5 
 9/12/19  20:15    ---    ---    ---   ---    ---   0.0   ---   0.00   0.0   ---    ---    ---    ---  1024.2  0.00  0.00     ---     ---   24.6    39    9.7   24.1   7.52  .0740    115    1    100.0    5 
 9/12/19  20:20    ---    ---    ---   ---    ---   0.0   ---   0.00   0.0   ---    ---    ---    ---  1024.2  0.00  0.00     ---     ---   24.6    39    9.7   24.1   7.52  .0740    115    1    100.0    5 
 9/12/19  20:25    ---    ---    ---   ---    ---   0.0   ---   0.00   0.0   ---    ---    ---    ---  1024.2  0.00  0.00     ---     ---   24.6    39    9.7   24.1   7.52  .0740    114    1    100.0    5 
 9/12/19  20:30    ---    ---    ---   ---    ---   0.0   ---   0.00   0.0   ---    ---    ---    ---  1024.4  0.00  0.00     ---     ---   24.6    39    9.7   24.1   7.52  .0740    116    1    100.0    5 
 9/12/19  20:35    ---    ---    ---   ---    ---   0.0   ---   0.00   0.0   ---    ---    ---    ---  1024.3  0.00  0.00     ---     ---   24.6    39    9.7   24.1   7.52  .0740    116    1    100.0    5 
 9/12/19  20:40    ---    ---    ---   ---    ---   0.0   ---   0.00   0.0   ---    ---    ---    ---  1024.4  0.00  0.00     ---     ---   24.6    39    9.7   24.1   7.52  .0740    116    1    100.0    5 
 9/12/19  20:45    ---    ---    ---   ---    ---   0.0   ---   0.00   0.0   ---    ---    ---    ---  1024.6  0.00  0.00     ---     ---   24.6    39    9.7   24.1   7.52  .0740    117    1    100.0    5 
 9/12/19  20:50    ---    ---    ---   ---    ---   0.0   ---   0.00   0.0   ---    ---    ---    ---  1024.6  0.00  0.00     ---     ---   24.6    39    9.7   24.1   7.52  .0740    116    1    100.0    5 
 9/12/19  20:55    ---    ---    ---   ---    ---   0.0   ---   0.00   0.0   ---    ---    ---    ---  1024.6  0.00  0.00     ---     ---   24.6    39    9.7   24.1   7.52  .0740    117    1    100.0    5 
 9/12/19  21:00    ---    ---    ---   ---    ---   0.0   ---   0.00   0.0   ---    ---    ---    ---  1024.6  0.00  0.00     ---     ---   24.6    39    9.7   24.1   7.52  .0740    117    1    100.0    5 
 9/12/19  21:05    ---    ---    ---   ---    ---   0.0   ---   0.00   0.0   ---    ---    ---    ---  1024.7  0.00  0.00     ---     ---   24.6    39    9.7   24.1   7.52  .0740    117    1    100.0    5 
 9/12/19  21:10    ---    ---    ---   ---    ---   0.0   ---   0.00   0.0   ---    ---    ---    ---  1024.5  0.00  0.00     ---     ---   24.6    39    9.7   24.1   7.52  .0740    117    1    100.0    5 
 9/12/19  21:15    ---    ---    ---   ---    ---   0.0   ---   0.00   0.0   ---    ---    ---    ---  1024.5  0.00  0.00     ---     ---   24.6    39    9.7   24.1   7.53  .0740    117    1    100.0    5 
 9/12/19  21:20    ---    ---    ---   ---    ---   0.0   ---   0.00   0.0   ---    ---    ---    ---  1024.6  0.00  0.00     ---     ---   24.6    39    9.7   24.1   7.53  .0740    116    1    100.0    5 
 9/12/19  21:25    ---    ---    ---   ---    ---   0.0   ---   0.00   0.0   ---    ---    ---    ---  1024.6  0.00  0.00     ---     ---   24.6    39    9.7   24.1   7.53  .0740    115    1    100.0    5 
 9/12/19  21:30    ---    ---    ---   ---    ---   0.0   ---   0.00   0.0   ---    ---    ---    ---  1024.5  0.00  0.00     ---     ---   24.5    39    9.6   24.0   7.53  .0740    117    1    100.0    5 
 9/12/19  21:35    ---    ---    ---   ---    ---   0.0   ---   0.00   0.0   ---    ---    ---    ---  1024.5  0.00  0.00     ---     ---   24.5    39    9.6   24.0   7.53  .0740    115    1    100.0    5 
 9/12/19  21:40    ---    ---    ---   ---    ---   0.0   ---   0.00   0.0   ---    ---    ---    ---  1024.6  0.00  0.00     ---     ---   24.5    39    9.6   24.0   7.53  .0740    115    1    100.0    5 
 9/12/19  21:45    ---    ---    ---   ---    ---   0.0   ---   0.00   0.0   ---    ---    ---    ---  1024.6  0.00  0.00     ---     ---   24.5    39    9.6   24.0   7.53  .0740    117    1    100.0    5 
 9/12/19  21:50    ---    ---    ---   ---    ---   0.0   ---   0.00   0.0   ---    ---    ---    ---  1024.7  0.00  0.00     ---     ---   24.5    39    9.6   24.0   7.53  .0740    117    1    100.0    5 
 9/12/19  21:55    ---    ---    ---   ---    ---   0.0   ---   0.00   0.0   ---    ---    ---    ---  1024.8  0.00  0.00     ---     ---   24.5    39    9.6   24.0   7.53  .0740    116    1    100.0    5 
 9/12/19  22:00    ---    ---    ---   ---    ---   0.0   ---   0.00   0.0   ---    ---    ---    ---  1024.8  0.00  0.00     ---     ---   24.5    39    9.6   24.0   7.53  .0740    117    1    100.0    5 
 9/12/19  22:05    ---    ---    ---   ---    ---   0.0   ---   0.00   0.0   ---    ---    ---    ---  1024.7  0.00  0.00     ---     ---   24.5    39    9.6   24.0   7.53  .0740    116    1    100.0    5 
 9/12/19  22:10    ---    ---    ---   ---    ---   0.0   ---   0.00   0.0   ---    ---    ---    ---  1024.8  0.00  0.00     ---     ---   24.5    39    9.6   24.0   7.53  .0740    117    1    100.0    5 
 9/12/19  22:15    ---    ---    ---   ---    ---   0.0   ---   0.00   0.0   ---    ---    ---    ---  1024.9  0.00  0.00     ---     ---   24.4    39    9.6   23.9   7.53  .0741    116    1    100.0    5 
 9/12/19  22:20    ---    ---    ---   ---    ---   0.0   ---   0.00   0.0   ---    ---    ---    ---  1024.8  0.00  0.00     ---     ---   24.4    39    9.6   23.9   7.53  .0741    117    1    100.0    5 
 9/12/19  22:25    ---    ---    ---   ---    ---   0.0   ---   0.00   0.0   ---    ---    ---    ---  1024.8  0.00  0.00     ---     ---   24.4    39    9.6   23.9   7.53  .0741    117    1    100.0    5 
 9/12/19  22:30    ---    ---    ---   ---    ---   0.0   ---   0.00   0.0   ---    ---    ---    ---  1024.9  0.00  0.00     ---     ---   24.4    39    9.5   23.8   7.53  .0741    117    1    100.0    5 
 9/12/19  22:35    ---    ---    ---   ---    ---   0.0   ---   0.00   0.0   ---    ---    ---    ---  1024.9  0.00  0.00     ---     ---   24.4    39    9.5   23.8   7.53  .0741    117    1    100.0    5 
 9/12/19  22:40    ---    ---    ---   ---    ---   0.0   ---   0.00   0.0   ---    ---    ---    ---  1024.8  0.00  0.00     ---     ---   24.4    39    9.5   23.8   7.53  .0741    116    1    100.0    5 
 9/12/19  22:45    ---    ---    ---   ---    ---   0.0   ---   0.00   0.0   ---    ---    ---    ---  1025.0  0.00  0.00     ---     ---   24.4    39    9.5   23.8   7.53  .0741    116    1    100.0    5 
 9/12/19  22:50    ---    ---    ---   ---    ---   0.0   ---   0.00   0.0   ---    ---    ---    ---  1024.9  0.00  0.00     ---     ---   24.3    39    9.5   23.8   7.53  .0741    115    1    100.0    5 
 9/12/19  22:55    ---    ---    ---   ---    ---   0.0   ---   0.00   0.0   ---    ---    ---    ---  1024.9  0.00  0.00     ---     ---   24.3    39    9.4   23.8   7.54  .0741    117    1    100.0    5 
 9/12/19  23:00    ---    ---    ---   ---    ---   0.0   ---   0.00   0.0   ---    ---    ---    ---  1025.0  0.00  0.00     ---     ---   24.3    39    9.4   23.8   7.54  .0741    117    1    100.0    5 
 9/12/19  23:05    ---    ---    ---   ---    ---   0.0   ---   0.00   0.0   ---    ---    ---    ---  1025.0  0.00  0.00     ---     ---   24.2    39    9.4   23.7   7.54  .0741    115    1    100.0    5 
 9/12/19  23:10    ---    ---    ---   ---    ---   0.0   ---   0.00   0.0   ---    ---    ---    ---  1025.1  0.00  0.00     ---     ---   24.2    39    9.4   23.7   7.54  .0741    117    1    100.0    5 
 9/12/19  23:15    ---    ---    ---   ---    ---   0.0   ---   0.00   0.0   ---    ---    ---    ---  1025.2  0.00  0.00     ---     ---   24.2    39    9.3   23.7   7.54  .0742    118    1    100.0    5 
 9/12/19  23:20    ---    ---    ---   ---    ---   0.0   ---   0.00   0.0   ---    ---    ---    ---  1024.9  0.00  0.00     ---     ---   24.1    39    9.3   23.6   7.54  .0742    117    1    100.0    5 
 9/12/19  23:25    ---    ---    ---   ---    ---   0.0   ---   0.00   0.0   ---    ---    ---    ---  1025.0  0.00  0.00     ---     ---   24.1    39    9.3   23.6   7.54  .0742    116    1    100.0    5 
 9/12/19  23:30    ---    ---    ---   ---    ---   0.0   ---   0.00   0.0   ---    ---    ---    ---  1025.0  0.00  0.00     ---     ---   24.1    39    9.3   23.6   7.54  .0742    117    1    100.0    5 
 9/12/19  23:35    ---    ---    ---   ---    ---   0.0   ---   0.00   0.0   ---    ---    ---    ---  1025.0  0.00  0.00     ---     ---   24.1    38    8.9   23.5   7.34  .0742    117    1    100.0    5 
 9/12/19  23:40    ---    ---    ---   ---    ---   0.0   ---   0.00   0.0   ---    ---    ---    ---  1025.0  0.00  0.00     ---     ---   24.0    38    8.8   23.4   7.35  .0742    116    1    100.0    5 
 9/12/19  23:45    ---    ---    ---   ---    ---   0.0   ---   0.00   0.0   ---    ---    ---    ---  1024.9  0.00  0.00     ---     ---   24.0    38    8.8   23.4   7.35  .0742    115    1    100.0    5 
 9/12/19  23:50    ---    ---    ---   ---    ---   0.0   ---   0.00   0.0   ---    ---    ---    ---  1024.8  0.00  0.00     ---     ---   24.0    38    8.8   23.4   7.35  .0742    116    1    100.0    5 
 9/12/19  23:55    ---    ---    ---   ---    ---   0.0   ---   0.00   0.0   ---    ---    ---    ---  1024.9  0.00  0.00     ---     ---   23.9    38    8.8   23.4   7.35  .0742    117    1    100.0    5 
10/12/19  00:00    ---    ---    ---   ---    ---   0.0   ---   0.00   0.0   ---    ---    ---    ---  1024.8  0.00  0.00     ---     ---   23.9    38    8.7   23.3   7.35  .0742    116    1    100.0    5 
10/12/19   0:05    ---    ---    ---   ---    ---   0.0   ---   0.00   0.0   ---    ---    ---    ---  1024.6  0.00  0.00     ---     ---   23.9    38    8.7   23.3   7.35  .0742    116    1    100.0    5 
10/12/19   0:10    ---    ---    ---   ---    ---   0.0   ---   0.00   0.0   ---    ---    ---    ---  1024.9  0.00  0.00     ---     ---   23.8    38    8.7   23.3   7.35  .0743    117    1    100.0    5 
10/12/19   0:15    ---    ---    ---   ---    ---   0.0   ---   0.00   0.0   ---    ---    ---    ---  1024.9  0.00  0.00     ---     ---   23.8    38    8.7   23.3   7.35  .0743    116    1    100.0    5 
10/12/19   0:20    ---    ---    ---   ---    ---   0.0   ---   0.00   0.0   ---    ---    ---    ---  1024.9  0.00  0.00     ---     ---   23.8    38    8.6   23.2   7.36  .0743    116    1    100.0    5 
10/12/19   0:25    ---    ---    ---   ---    ---   0.0   ---   0.00   0.0   ---    ---    ---    ---  1024.9  0.00  0.00     ---     ---   23.8    38    8.6   23.2   7.36  .0743    117    1    100.0    5 
10/12/19   0:30    ---    ---    ---   ---    ---   0.0   ---   0.00   0.0   ---    ---    ---    ---  1024.8  0.00  0.00     ---     ---   23.7    38    8.6   23.2   7.36  .0743    117    1    100.0    5 
10/12/19   0:35    ---    ---    ---   ---    ---   0.0   ---   0.00   0.0   ---    ---    ---    ---  1024.6  0.00  0.00     ---     ---   23.7    38    8.5   23.1   7.37  .0743    116    1    100.0    5 
10/12/19   0:40    ---    ---    ---   ---    ---   0.0   ---   0.00   0.0   ---    ---    ---    ---  1024.5  0.00  0.00     ---     ---   23.7    38    8.5   23.1   7.37  .0743    116    1    100.0    5 
10/12/19   0:45    ---    ---    ---   ---    ---   0.0   ---   0.00   0.0   ---    ---    ---    ---  1024.7  0.00  0.00     ---     ---   23.6    38    8.5   23.1   7.37  .0743    118    1    100.0    5 
10/12/19   0:50    ---    ---    ---   ---    ---   0.0   ---   0.00   0.0   ---    ---    ---    ---  1024.6  0.00  0.00     ---     ---   23.6    38    8.4   23.0   7.37  .0743    114    1    100.0    5 
10/12/19   0:55    ---    ---    ---   ---    ---   0.0   ---   0.00   0.0   ---    ---    ---    ---  1024.6  0.00  0.00     ---     ---   23.6    38    8.4   23.0   7.37  .0743    116    1    100.0    5 
10/12/19   1:00    ---    ---    ---   ---    ---   0.0   ---   0.00   0.0   ---    ---    ---    ---  1024.4  0.00  0.00     ---     ---   23.5    38    8.4   22.9   7.38  .0743    116    1    100.0    5 
10/12/19   1:05    ---    ---    ---   ---    ---   0.0   ---   0.00   0.0   ---    ---    ---    ---  1024.6  0.00  0.00     ---     ---   23.4    38    8.3   22.9   7.38  .0744    116    1    100.0    5 
10/12/19   1:10    ---    ---    ---   ---    ---   0.0   ---   0.00   0.0   ---    ---    ---    ---  1024.7  0.00  0.00     ---     ---   23.4    38    8.3   22.9   7.38  .0744    116    1    100.0    5 
10/12/19   1:15    ---    ---    ---   ---    ---   0.0   ---   0.00   0.0   ---    ---    ---    ---  1024.9  0.00  0.00     ---     ---   23.4    38    8.3   22.8   7.39  .0744    116    1    100.0    5 
10/12/19   1:20    ---    ---    ---   ---    ---   0.0   ---   0.00   0.0   ---    ---    ---    ---  1024.8  0.00  0.00     ---     ---   23.4    38    8.3   22.8   7.39  .0744    117    1    100.0    5 
10/12/19   1:25    ---    ---    ---   ---    ---   0.0   ---   0.00   0.0   ---    ---    ---    ---  1024.7  0.00  0.00     ---     ---   23.3    38    8.2   22.7   7.39  .0744    114    1    100.0    5 
10/12/19   1:30    ---    ---    ---   ---    ---   0.0   ---   0.00   0.0   ---    ---    ---    ---  1024.6  0.00  0.00     ---     ---   23.3    38    8.2   22.7   7.39  .0744    116    1    100.0    5 
10/12/19   1:35    ---    ---    ---   ---    ---   0.0   ---   0.00   0.0   ---    ---    ---    ---  1024.6  0.00  0.00     ---     ---   23.2    38    8.1   22.6   7.40  .0744    117    1    100.0    5 
10/12/19   1:40    ---    ---    ---   ---    ---   0.0   ---   0.00   0.0   ---    ---    ---    ---  1024.6  0.00  0.00     ---     ---   23.2    38    8.1   22.6   7.40  .0744    115    1    100.0    5 
10/12/19   1:45    ---    ---    ---   ---    ---   0.0   ---   0.00   0.0   ---    ---    ---    ---  1024.4  0.00  0.00     ---     ---   23.2    38    8.1   22.5   7.40  .0744    117    1    100.0    5 
10/12/19   1:50    ---    ---    ---   ---    ---   0.0   ---   0.00   0.0   ---    ---    ---    ---  1024.6  0.00  0.00     ---     ---   23.2    38    8.1   22.5   7.40  .0744    117    1    100.0    5 
10/12/19   1:55    ---    ---    ---   ---    ---   0.0   ---   0.00   0.0   ---    ---    ---    ---  1024.6  0.00  0.00     ---     ---   23.1    38    8.0   22.4   7.41  .0745    114    1    100.0    5 
10/12/19   2:00    ---    ---    ---   ---    ---   0.0   ---   0.00   0.0   ---    ---    ---    ---  1024.6  0.00  0.00     ---     ---   23.1    38    8.0   22.3   7.41  .0745    117    1    100.0    5 
10/12/19   2:05    ---    ---    ---   ---    ---   0.0   ---   0.00   0.0   ---    ---    ---    ---  1024.6  0.00  0.00     ---     ---   23.1    38    8.0   22.3   7.41  .0745    117    1    100.0    5 
10/12/19   2:10    ---    ---    ---   ---    ---   0.0   ---   0.00   0.0   ---    ---    ---    ---  1024.7  0.00  0.00     ---     ---   23.0    38    7.9   22.3   7.41  .0745    117    1    100.0    5 
10/12/19   2:15    ---    ---    ---   ---    ---   0.0   ---   0.00   0.0   ---    ---    ---    ---  1024.6  0.00  0.00     ---     ---   22.9    38    7.9   22.2   7.42  .0745    117    1    100.0    5 
10/12/19   2:20    ---    ---    ---   ---    ---   0.0   ---   0.00   0.0   ---    ---    ---    ---  1024.5  0.00  0.00     ---     ---   22.9    38    7.9   22.2   7.42  .0745    116    1    100.0    5 
10/12/19   2:25    ---    ---    ---   ---    ---   0.0   ---   0.00   0.0   ---    ---    ---    ---  1024.5  0.00  0.00     ---     ---   22.9    38    7.8   22.1   7.42  .0745    117    1    100.0    5 
10/12/19   2:30    ---    ---    ---   ---    ---   0.0   ---   0.00   0.0   ---    ---    ---    ---  1024.6  0.00  0.00     ---     ---   22.9    38    7.8   22.1   7.42  .0745    117    1    100.0    5 
10/12/19   2:35    ---    ---    ---   ---    ---   0.0   ---   0.00   0.0   ---    ---    ---    ---  1024.5  0.00  0.00     ---     ---   22.8    38    7.7   21.9   7.43  .0746    116    1    100.0    5 
10/12/19   2:40    ---    ---    ---   ---    ---   0.0   ---   0.00   0.0   ---    ---    ---    ---  1024.5  0.00  0.00     ---     ---   22.8    38    7.7   21.9   7.43  .0746    117    1    100.0    5 
10/12/19   2:45    ---    ---    ---   ---    ---   0.0   ---   0.00   0.0   ---    ---    ---    ---  1024.5  0.00  0.00     ---     ---   22.8    38    7.7   21.9   7.43  .0746    116    1    100.0    5 
10/12/19   2:50    ---    ---    ---   ---    ---   0.0   ---   0.00   0.0   ---    ---    ---    ---  1024.4  0.00  0.00     ---     ---   22.7    38    7.7   21.8   7.43  .0746    117    1    100.0    5 
10/12/19   2:55    ---    ---    ---   ---    ---   0.0   ---   0.00   0.0   ---    ---    ---    ---  1024.4  0.00  0.00     ---     ---   22.8    38    7.7   21.9   7.43  .0745    118    1    100.0    5 
10/12/19   3:00    ---    ---    ---   ---    ---   0.0   ---   0.00   0.0   ---    ---    ---    ---  1024.4  0.00  0.00     ---     ---   22.7    38    7.7   21.8   7.43  .0746    117    1    100.0    5 
10/12/19   3:05    ---    ---    ---   ---    ---   0.0   ---   0.00   0.0   ---    ---    ---    ---  1024.2  0.00  0.00     ---     ---   22.7    38    7.7   21.8   7.43  .0746    117    1    100.0    5 
10/12/19   3:10    ---    ---    ---   ---    ---   0.0   ---   0.00   0.0   ---    ---    ---    ---  1024.1  0.00  0.00     ---     ---   22.7    38    7.7   21.8   7.43  .0745    115    1    100.0    5 
10/12/19   3:15    ---    ---    ---   ---    ---   0.0   ---   0.00   0.0   ---    ---    ---    ---  1024.0  0.00  0.00     ---     ---   22.7    38    7.7   21.8   7.43  .0745    117    1    100.0    5 
10/12/19   3:20    ---    ---    ---   ---    ---   0.0   ---   0.00   0.0   ---    ---    ---    ---  1023.9  0.00  0.00     ---     ---   22.7    38    7.7   21.8   7.43  .0745    117    1    100.0    5 
10/12/19   3:25    ---    ---    ---   ---    ---   0.0   ---   0.00   0.0   ---    ---    ---    ---  1023.8  0.00  0.00     ---     ---   22.7    38    7.7   21.8   7.43  .0745    115    1    100.0    5 
10/12/19   3:30    ---    ---    ---   ---    ---   0.0   ---   0.00   0.0   ---    ---    ---    ---  1023.7  0.00  0.00     ---     ---   22.7    38    7.7   21.8   7.43  .0745    117    1    100.0    5 
10/12/19   3:35    ---    ---    ---   ---    ---   0.0   SSW   0.00   3.0   SSW    ---    ---    ---  1023.5  0.00  0.00     ---     ---   22.7    38    7.7   21.8   7.43  .0745    116    1    100.0    5 
10/12/19   3:40    ---    ---    ---   ---    ---   1.0   SSW   0.08   5.0   SSW    ---    ---    ---  1023.5  0.00  0.00     ---     ---   22.7    38    7.7   21.8   7.43  .0745    115    1    100.0    5 
10/12/19   3:45    ---    ---    ---   ---    ---   2.0   SSW   0.17   7.0   SSW    ---    ---    ---  1023.4  0.00  0.00     ---     ---   22.7    38    7.7   21.8   7.43  .0745    117    1    100.0    5 
10/12/19   3:50    ---  -67.8  -67.8   ---    ---   3.0   SSW   0.25   7.0   SSW    ---    ---    ---  1023.3  0.00  0.00     ---     ---   22.8    38    7.7   21.9   7.43  .0745    116    1    100.0    5 
10/12/19   3:55    ---    ---    ---   ---    ---   3.0   SSW   0.25   8.0   SSW    ---    ---    ---  1023.2  0.00  0.00     ---     ---   22.8    38    7.8   22.0   7.43  .0744    117    1    100.0    5 
10/12/19   4:00    ---  -67.8  -67.8   ---    ---   3.0   SSW   0.25  10.0   SSW    ---    ---    ---  1023.1  0.00  0.00     ---     ---   22.8    38    7.7   21.9   7.43  .0745    117    1    100.0    5 
10/12/19   4:05    ---  -67.8  -67.8   ---    ---   3.0   SSW   0.25  10.0   SSW    ---    ---    ---  1023.2  0.00  0.00     ---     ---   22.8    38    7.7   21.9   7.43  .0745    115    1    100.0    5 
10/12/19   4:10  -67.8  -67.8  -67.8   ---    ---   3.0   SSW   0.25   3.0   SSW  -78.1    ---    ---  1023.2  0.00  0.00   0.299   0.000   22.8    38    7.7   21.9   7.43  .0745    117    1    100.0    5 
10/12/19   4:15  -67.8  -67.8  -67.8   ---    ---   3.0   SSW   0.25   7.0     S  -78.1    ---    ---  1023.2  0.00  0.00   0.299   0.000   22.8    38    7.7   21.9   7.43  .0745    117    1    100.0    5 
10/12/19   4:20  -67.8  -67.8  -67.8   ---    ---   3.0   SSW   0.25   4.0   SSW  -78.1    ---    ---  1023.0  0.00  0.00   0.299   0.000   22.8    38    7.7   21.9   7.43  .0744    116    1    100.0    5 
10/12/19   4:25    ---  -67.8  -67.8   ---    ---   3.0   SSW   0.25  11.0   SSW    ---    ---    ---  1022.9  0.00  0.00     ---     ---   22.8    38    7.7   21.9   7.43  .0744    116    1    100.0    5 
10/12/19   4:30    ---  -67.8  -67.8   ---    ---   3.0   SSW   0.25   4.0   SSW    ---    ---    ---  1022.8  0.00  0.00     ---     ---   22.7    38    7.7   21.8   7.43  .0745    117    1    100.0    5 
10/12/19   4:35  -67.8  -67.8  -67.8   ---    ---   3.0   SSW   0.25   4.0    SW  -78.1    ---    ---  1022.8  0.00  0.00   0.299   0.000   22.7    38    7.7   21.8   7.43  .0744    116    1    100.0    5 
10/12/19   4:40  -67.8  -67.8  -67.8   ---    ---   3.0   SSW   0.25   4.0   SSW  -78.1    ---    ---  1022.7  0.00  0.00   0.299   0.000   22.8    38    7.7   21.9   7.43  .0744    115    1    100.0    5 
10/12/19   4:45    ---  -67.8  -67.8   ---    ---   3.0    SW   0.25   4.0    SW    ---    ---    ---  1022.5  0.00  0.00     ---     ---   22.8    38    7.7   21.9   7.43  .0744    117    1    100.0    5 
10/12/19   4:50  -67.8  -67.8  -67.8   ---    ---   3.0   SSW   0.25   4.0    SW  -78.1    ---    ---  1022.5  0.00  0.00   0.299   0.000   22.8    38    7.7   21.9   7.43  .0744    116    1    100.0    5 
10/12/19   4:55  -67.8  -67.8  -67.8   ---    ---   3.0   SSW   0.25   4.0   SSW  -78.1    ---    ---  1022.4  0.00  0.00   0.299   0.000   22.7    38    7.7   21.8   7.43  .0744    117    1    100.0    5 
10/12/19   5:00  -67.8  -67.8  -67.8   ---    ---   3.0    SW   0.25   4.0   SSW  -78.1    ---    ---  1022.3  0.00  0.00   0.299   0.000   22.8    38    7.7   21.9   7.43  .0744    117    1    100.0    5 
10/12/19   5:05  -67.8  -67.8  -67.8   ---    ---   3.0   SSW   0.25   4.0   SSW  -78.1    ---    ---  1022.3  0.00  0.00   0.299   0.000   22.8    38    7.7   21.9   7.43  .0744    117    1    100.0    5 
10/12/19   5:10  -67.8  -67.8  -67.8   ---    ---   3.0    SW   0.25   5.0    SW  -78.1    ---    ---  1022.4  0.00  0.00   0.299   0.000   22.8    38    7.7   21.9   7.43  .0744    116    1    100.0    5 
10/12/19   5:15  -67.8  -67.8  -67.8   ---    ---   3.0    SW   0.25   4.0   SSW  -78.1    ---    ---  1022.2  0.00  0.00   0.299   0.000   22.8    38    7.7   21.9   7.43  .0744    117    1    100.0    5 
10/12/19   5:20  -67.8  -67.8  -67.8   ---    ---   3.0   SSW   0.25   5.0   SSW  -78.1    ---    ---  1022.2  0.00  0.00   0.299   0.000   22.8    38    7.7   21.9   7.43  .0744    117    1    100.0    5 
10/12/19   5:25  -67.8  -67.8  -67.8   ---    ---   3.0   SSW   0.25   4.0   SSW  -78.1    ---    ---  1022.0  0.00  0.00   0.299   0.000   22.8    38    7.7   21.9   7.43  .0744    117    1    100.0    5 
10/12/19   5:30  -67.8  -67.8  -67.8   ---    ---   4.0   SSW   0.33   4.0   SSW  -80.4    ---    ---  1021.9  0.00  0.00   0.299   0.000   22.8    38    7.7   21.9   7.43  .0744    116    1    100.0    5 
10/12/19   5:35  -67.8  -67.8  -67.8   ---    ---   3.0   SSW   0.25   5.0   SSW  -78.1    ---    ---  1021.8  0.00  0.00   0.299   0.000   22.8    38    7.7   21.9   7.43  .0744    117    1    100.0    5 
10/12/19   5:40  -67.8  -67.8  -67.8   ---    ---   4.0   SSW   0.33   5.0   SSW  -80.4    ---    ---  1021.8  0.00  0.00   0.299   0.000   22.8    38    7.7   21.9   7.43  .0744    117    1    100.0    5 
10/12/19   5:45  -67.8  -67.8  -67.8   ---    ---   4.0   SSW   0.33   4.0   SSW  -80.4    ---    ---  1021.7  0.00  0.00   0.299   0.000   22.8    38    7.7   21.9   7.43  .0744    117    1    100.0    5 
10/12/19   5:50  -67.8  -67.8  -67.8   ---    ---   4.0   SSW   0.33   5.0   SSW  -80.4    ---    ---  1021.6  0.00  0.00   0.299   0.000   22.8    38    7.7   21.9   7.43  .0743    117    1    100.0    5 
10/12/19   5:55  -67.8  -67.8  -67.8   ---    ---   4.0   SSW   0.33   5.0     S  -80.4    ---    ---  1021.4  0.00  0.00   0.299   0.000   22.8    38    7.7   21.9   7.43  .0743    117    1    100.0    5 
10/12/19   6:00  -67.8  -67.8  -67.8   ---    ---   4.0   SSW   0.33   6.0     S  -80.4    ---    ---  1021.3  0.00  0.00   0.299   0.000   22.8    38    7.8   22.0   7.43  .0743    117    1    100.0    5 
10/12/19   6:05  -67.8  -67.8  -67.8   ---    ---   4.0   SSW   0.33   6.0     S  -80.4    ---    ---  1021.2  0.00  0.00   0.299   0.000   22.8    38    7.7   21.9   7.43  .0743    117    1    100.0    5 
10/12/19   6:10  -67.8  -67.8  -67.8   ---    ---   4.0   SSW   0.33   5.0   SSW  -80.4    ---    ---  1021.1  0.00  0.00   0.299   0.000   22.8    38    7.7   21.9   7.43  .0743    116    1    100.0    5 
10/12/19   6:15  -67.8  -67.8  -67.8   ---    ---   4.0   SSW   0.33   5.0   SSW  -80.4    ---    ---  1021.0  0.00  0.00   0.299   0.000   22.8    38    7.7   21.9   7.43  .0743    116    1    100.0    5 
10/12/19   6:20  -67.8  -67.8  -67.8   ---    ---   4.0   SSW   0.33   5.0   SSW  -80.4    ---    ---  1020.9  0.00  0.00   0.299   0.000   22.8    38    7.7   21.9   7.43  .0743    117    1    100.0    5 
10/12/19   6:25  -67.8  -67.8  -67.8   ---    ---   4.0   SSW   0.33   7.0   SSW  -80.4    ---    ---  1020.8  0.00  0.00   0.299   0.000   22.8    38    7.7   21.9   7.43  .0743    117    1    100.0    5 
10/12/19   6:30  -67.8  -67.8  -67.8   ---    ---   4.0   SSW   0.33   7.0   SSW  -80.4    ---    ---  1020.8  0.00  0.00   0.299   0.000   22.8    39    8.1   22.1   7.59  .0742    117    1    100.0    5 
10/12/19   6:35  -67.8  -67.8  -67.8   ---    ---   5.0   SSW   0.42   7.0   SSW  -82.3    ---    ---  1020.8  0.00  0.00   0.299   0.000   22.8    39    8.1   22.1   7.59  .0742    117    1    100.0    5 
10/12/19   6:40  -67.8  -67.8  -67.8   ---    ---   4.0   SSW   0.33   6.0     S  -80.4    ---    ---  1020.6  0.00  0.00   0.299   0.000   22.8    39    8.1   22.1   7.59  .0742    117    1    100.0    5 
10/12/19   6:45  -67.8  -67.8  -67.8   ---    ---   4.0     S   0.33   7.0     S  -80.4    ---    ---  1020.5  0.00  0.00   0.299   0.000   22.9    39    8.2   22.2   7.59  .0742    117    1    100.0    5 
10/12/19   6:50  -67.8  -67.8  -67.8   ---    ---   5.0     S   0.42   8.0     S  -82.3    ---    ---  1020.4  0.00  0.00   0.299   0.000   22.9    39    8.2   22.2   7.59  .0742    116    1    100.0    5 
10/12/19   6:55  -67.8  -67.8  -67.8   ---    ---   5.0   SSW   0.42   7.0   SSW  -82.3    ---    ---  1020.2  0.00  0.00   0.299   0.000   22.9    39    8.2   22.2   7.58  .0742    116    1    100.0    5 
10/12/19   7:00  -67.8  -67.8  -67.8   ---    ---   5.0     S   0.42   8.0     S  -82.3    ---    ---  1020.3  0.00  0.00   0.299   0.000   23.0    39    8.3   22.3   7.58  .0742    116    1    100.0    5 
10/12/19   7:05  -67.8  -67.8  -67.8   ---    ---   6.0     S   0.50   7.0     S  -83.9    ---    ---  1020.3  0.00  0.00   0.299   0.000   23.1    39    8.3   22.4   7.58  .0741    116    1    100.0    5 
10/12/19   7:10  -67.8  -67.8  -67.8   ---    ---   5.0     S   0.42   7.0   SSW  -82.3    ---    ---  1020.2  0.00  0.00   0.299   0.000   23.1    39    8.3   22.4   7.58  .0741    118    1    100.0    5 
10/12/19   7:15  -67.8  -67.8  -67.8   ---    ---   5.0   SSW   0.42   8.0     S  -82.3    ---    ---  1020.3  0.00  0.00   0.299   0.000   23.1    39    8.3   22.4   7.58  .0741    117    1    100.0    5 
10/12/19   7:20  -67.8  -67.8  -67.8   ---    ---   5.0   SSW   0.42   8.0   SSW  -82.3    ---    ---  1020.2  0.00  0.00   0.299   0.000   23.1    39    8.4   22.5   7.58  .0741    117    1    100.0    5 
10/12/19   7:25  -67.8  -67.8  -67.8   ---    ---   5.0   SSW   0.42   8.0   SSW  -82.3    ---    ---  1020.4  0.00  0.00   0.299   0.000   23.1    39    8.4   22.5   7.58  .0741    117    1    100.0    5 
10/12/19   7:30  -67.8  -67.8  -67.8   ---    ---   5.0   SSW   0.42   8.0     S  -82.3    ---    ---  1020.1  0.00  0.00   0.299   0.000   23.1    39    8.4   22.5   7.58  .0741    117    1    100.0    5 
10/12/19   7:35  -67.8  -67.8  -67.8   ---    ---   5.0   SSW   0.42   7.0     S  -82.3    ---    ---  1020.2  0.00  0.00   0.299   0.000   23.2    39    8.4   22.6   7.58  .0741    117    1    100.0    5 
10/12/19   7:40  -67.8  -67.8  -67.8   ---    ---   5.0   SSW   0.42   8.0   SSW  -82.3    ---    ---  1020.3  0.00  0.00   0.299   0.000   23.2    39    8.4   22.6   7.58  .0741    116    1    100.0    5 
10/12/19   7:45  -67.8  -67.8  -67.8   ---    ---   5.0   SSW   0.42   8.0   SSW  -82.3    ---    ---  1020.1  0.00  0.00   0.299   0.000   23.2    39    8.5   22.6   7.57  .0741    116    1    100.0    5 
10/12/19   7:50  -67.8  -67.8  -67.8   ---    ---   5.0   SSW   0.42   7.0   SSW  -82.3    ---    ---  1020.1  0.00  0.00   0.299   0.000   23.3    39    8.5   22.7   7.57  .0741    117    1    100.0    5 
10/12/19   7:55  -67.8  -67.8  -67.8   ---    ---   5.0   SSW   0.42   8.0   SSW  -82.3    ---    ---  1020.1  0.00  0.00   0.299   0.000   23.3    39    8.5   22.7   7.57  .0741    116    1    100.0    5 
10/12/19   8:00  -67.8  -67.8  -67.8   ---    ---   6.0   SSW   0.50   8.0   SSW  -83.9    ---    ---  1020.0  0.00  0.00   0.299   0.000   23.3    40    8.9   22.8   7.67  .0740    117    1    100.0    5 
10/12/19   8:05  -67.8  -67.8  -67.8   ---    ---   6.0   SSW   0.50   8.0   SSW  -83.9    ---    ---  1019.9  0.00  0.00   0.299   0.000   23.3    40    8.9   22.8   7.67  .0740    117    1    100.0    5 
10/12/19   8:10  -67.8  -67.8  -67.8   ---    ---   5.0   SSW   0.42  13.0     S  -82.3    ---    ---  1019.8  0.00  0.00   0.299   0.000   23.2    40    8.9   22.7   7.67  .0740    117    1    100.0    5 
10/12/19   8:15  -67.8  -67.8  -67.8   ---    ---   6.0   SSW   0.50  13.0     S  -83.9    ---    ---  1019.7  0.00  0.00   0.299   0.000   23.2    40    8.9   22.7   7.67  .0740    118    1    100.0    5 
10/12/19   8:20  -67.8  -67.8  -67.8   ---    ---   6.0   SSW   0.50   8.0   SSW  -83.9    ---    ---  1019.7  0.00  0.00   0.299   0.000   23.2    40    8.9   22.7   7.67  .0740    117    1    100.0    5 
10/12/19   8:25  -67.8  -67.8  -67.8   ---    ---   6.0   SSW   0.50  10.0   SSW  -83.9    ---    ---  1019.5  0.00  0.00   0.299   0.000   23.2    40    8.9   22.7   7.67  .0740    117    1    100.0    5 
10/12/19   8:30  -67.8  -67.8  -67.8   ---    ---   6.0   SSW   0.50  10.0   SSW  -83.9    ---    ---  1019.3  0.00  0.00   0.299   0.000   23.2    40    8.9   22.7   7.67  .0740    117    1    100.0    5 
10/12/19   8:35  -67.8  -67.8  -67.8   ---    ---   6.0   SSW   0.50  11.0   SSW  -83.9    ---    ---  1019.3  0.00  0.00   0.299   0.000   23.2    40    8.9   22.7   7.67  .0740    117    1    100.0    5 
10/12/19   8:40  -67.8  -67.8  -67.8   ---    ---   5.0   SSW   0.42   8.0   SSW  -82.3    ---    ---  1019.2  0.00  0.00   0.299   0.000   23.2    40    8.9   22.7   7.67  .0740    115    1    100.0    5 
10/12/19   8:45  -67.8  -67.8  -67.8   ---    ---   7.0   SSW   0.58  10.0   SSW  -85.2    ---    ---  1019.1  0.00  0.00   0.299   0.000   23.2    40    8.9   22.7   7.67  .0740    117    1    100.0    5 
10/12/19   8:50  -67.8  -67.8  -67.8   ---    ---   6.0   SSW   0.50   9.0   SSW  -83.9    ---    ---  1019.1  0.00  0.00   0.299   0.000   23.2    40    8.9   22.7   7.67  .0740    117    1    100.0    5 
10/12/19   8:55  -67.8  -67.8  -67.8   ---    ---   6.0   SSW   0.50  10.0   SSW  -83.9    ---    ---  1018.9  0.00  0.00   0.299   0.000   23.2    40    8.9   22.7   7.67  .0740    116    1    100.0    5 
10/12/19   9:00  -67.8  -67.8  -67.8   ---    ---   6.0   SSW   0.50   9.0   SSW  -83.9    ---    ---  1018.9  0.00  0.00   0.299   0.000   23.2    40    8.9   22.7   7.67  .0740    117    1    100.0    5 
10/12/19   9:05  -67.8  -67.8  -67.8   ---    ---   5.0   SSW   0.42   8.0   SSW  -82.3    ---    ---  1018.9  0.00  0.00   0.299   0.000   23.3    40    8.9   22.8   7.67  .0740    117    1    100.0    5 
10/12/19   9:10  -67.8  -67.8  -67.8   ---    ---   6.0   SSW   0.50   9.0   SSW  -83.9    ---    ---  1018.9  0.00  0.00   0.299   0.000   23.3    40    8.9   22.8   7.67  .0740    117    1    100.0    5 
10/12/19   9:15  -67.8  -67.8  -67.8   ---    ---   6.0   SSW   0.50   8.0   SSW  -83.9    ---    ---  1018.8  0.00  0.00   0.299   0.000   23.3    40    8.9   22.8   7.67  .0739    117    1    100.0    5 
10/12/19   9:20  -67.8  -67.8  -67.8   ---    ---   6.0   SSW   0.50  10.0   SSW  -83.9    ---    ---  1018.6  0.00  0.00   0.299   0.000   23.3    40    8.9   22.8   7.67  .0739    117    1    100.0    5 
10/12/19   9:25  -67.8  -67.8  -67.8   ---    ---   6.0   SSW   0.50  11.0   SSW  -83.9    ---    ---  1018.6  0.00  0.00   0.299   0.000   23.3    40    8.9   22.8   7.67  .0739    117    1    100.0    5 
10/12/19   9:30  -67.8  -67.8  -67.8   ---    ---   6.0   SSW   0.50   9.0    SW  -83.9    ---    ---  1018.4  0.00  0.00   0.299   0.000   23.3    40    8.9   22.8   7.67  .0739    116    1    100.0    5 
10/12/19   9:35  -67.8  -67.8  -67.8   ---    ---   6.0   SSW   0.50   7.0    SW  -83.9    ---    ---  1018.2  0.00  0.00   0.299   0.000   23.3    40    8.9   22.8   7.67  .0739    116    1    100.0    5 
10/12/19   9:40  -67.8  -67.8  -67.8   ---    ---   6.0   SSW   0.50   8.0   SSW  -83.9    ---    ---  1018.2  0.00  0.00   0.299   0.000   23.3    40    9.0   22.8   7.67  .0739    117    1    100.0    5 
10/12/19   9:45  -67.8  -67.8  -67.8   ---    ---   5.0   SSW   0.42   8.0   SSW  -82.3    ---    ---  1018.1  0.00  0.00   0.299   0.000   23.3    40    8.9   22.8   7.67  .0739    116    1    100.0    5 
10/12/19   9:50  -67.8  -67.8  -67.8   ---    ---   6.0   SSW   0.50   7.0     S  -83.9    ---    ---  1018.2  0.00  0.00   0.299   0.000   23.3    40    9.0   22.8   7.67  .0739    117    1    100.0    5 
10/12/19   9:55  -67.8  -67.8  -67.8   ---    ---   7.0   SSW   0.58  11.0     S  -85.2    ---    ---  1018.0  0.00  0.00   0.299   0.000   23.3    40    9.0   22.8   7.67  .0739    117    1    100.0    5 
10/12/19  10:00  -67.8  -67.8  -67.8   ---    ---   6.0   SSW   0.50  11.0    SW  -83.9    ---    ---  1018.1  0.00  0.00   0.299   0.000   23.3    40    9.0   22.8   7.67  .0739    117    1    100.0    5 
10/12/19  10:05  -67.8  -67.8  -67.8   ---    ---   6.0   SSW   0.50  10.0   SSW  -83.9    ---    ---  1017.9  0.00  0.00   0.299   0.000   23.3    40    9.0   22.8   7.67  .0739    117    1    100.0    5 
10/12/19  10:10  -67.8  -67.8  -67.8   ---    ---   6.0     S   0.50   9.0    SW  -83.9    ---    ---  1017.8  0.00  0.00   0.299   0.000   23.3    40    9.0   22.8   7.67  .0739    117    1    100.0    5 
10/12/19  10:15  -67.8  -67.8  -67.8   ---    ---   6.0     S   0.50   9.0     S  -83.9    ---    ---  1017.6  0.00  0.00   0.299   0.000   23.3    40    8.9   22.8   7.67  .0739    116    1    100.0    5 
10/12/19  10:20  -67.8  -67.8  -67.8   ---    ---   7.0   SSW   0.58  10.0   SSW  -85.2    ---    ---  1017.5  0.00  0.00   0.299   0.000   23.3    40    8.9   22.8   7.67  .0739    117    1    100.0    5 
10/12/19  10:25  -67.8  -67.8  -67.8   ---    ---   6.0   SSW   0.50   9.0   SSW  -83.9    ---    ---  1017.5  0.00  0.00   0.299   0.000   23.3    40    8.9   22.8   7.67  .0739    118    1    100.0    5 
10/12/19  10:30  -67.8  -67.8  -67.8   ---    ---   7.0     S   0.58  10.0     S  -85.2    ---    ---  1017.4  0.00  0.00   0.299   0.000   23.2    40    8.9   22.7   7.67  .0739    116    1    100.0    5 
10/12/19  10:35  -67.8  -67.8  -67.8   ---    ---   6.0   SSW   0.50  10.0   SSW  -83.9    ---    ---  1017.3  0.00  0.00   0.299   0.000   23.2    40    8.9   22.7   7.67  .0739    116    1    100.0    5 
10/12/19  10:40  -67.8  -67.8  -67.8   ---    ---   7.0   SSW   0.58  10.0   SSW  -85.2    ---    ---  1017.1  0.00  0.00   0.299   0.000   23.2    40    8.8   22.6   7.68  .0739    117    1    100.0    5 
10/12/19  10:45  -67.8  -67.8  -67.8   ---    ---   6.0   SSW   0.50   9.0   SSW  -83.9    ---    ---  1017.0  0.00  0.00   0.299   0.000   23.2    40    8.8   22.6   7.68  .0738    117    1    100.0    5 
10/12/19  10:50  -67.8  -67.8  -67.8   ---    ---   7.0   SSW   0.58  11.0     S  -85.2    ---    ---  1017.0  0.00  0.00   0.299   0.000   23.1    40    8.8   22.5   7.68  .0739    117    1    100.0    5 
10/12/19  10:55  -67.8  -67.8  -67.8   ---    ---   5.0   SSW   0.42   8.0    SW  -82.3    ---    ---  1016.8  0.00  0.00   0.299   0.000   23.1    40    8.7   22.4   7.68  .0739    116    1    100.0    5 
10/12/19  11:00  -67.8  -67.8  -67.8   ---    ---   5.0   SSW   0.42   8.0   SSW  -82.3    ---    ---  1016.6  0.00  0.00   0.299   0.000   23.1    40    8.7   22.4   7.68  .0739    117    1    100.0    5 
10/12/19  11:05  -67.8  -67.8  -67.8   ---    ---   6.0   SSW   0.50   9.0     S  -83.9    ---    ---  1016.5  0.00  0.00   0.299   0.000   23.0    40    8.7   22.4   7.68  .0739    117    1    100.0    5 
10/12/19  11:10  -67.8  -67.8  -67.8   ---    ---   6.0   SSW   0.50  10.0   SSW  -83.9    ---    ---  1016.4  0.00  0.00   0.299   0.000   22.9    40    8.6   22.3   7.68  .0739    117    1    100.0    5 
10/12/19  11:15  -67.8  -67.8  -67.8   ---    ---   7.0   SSW   0.58  12.0   SSW  -85.2    ---    ---  1016.3  0.00  0.00   0.299   0.000   22.9    40    8.6   22.3   7.68  .0739    117    1    100.0    5 
10/12/19  11:20  -67.8  -67.8  -67.8   ---    ---   7.0   SSW   0.58  12.0   SSW  -85.2    ---    ---  1016.2  0.00  0.00   0.299   0.000   22.9    40    8.6   22.2   7.69  .0739    116    1    100.0    5 
10/12/19  11:25  -67.8  -67.8  -67.8   ---    ---   7.0   SSW   0.58  12.0   SSW  -85.2    ---    ---  1016.1  0.00  0.00   0.299   0.000   22.8    40    8.5   22.1   7.69  .0739    118    1    100.0    5 
10/12/19  11:30  -67.8  -67.8  -67.8   ---    ---   7.0   SSW   0.58  11.0   SSW  -85.2    ---    ---  1015.9  0.00  0.00   0.299   0.000   22.8    40    8.5   22.1   7.69  .0739    115    1    100.0    5 
10/12/19  11:35  -67.8  -67.8  -67.8   ---    ---   6.0   SSW   0.50   9.0    SW  -83.9    ---    ---  1015.8  0.00  0.00   0.299   0.000   22.8    40    8.5   22.1   7.69  .0739    117    1    100.0    5 
10/12/19  11:40  -67.8  -67.8  -67.8   ---    ---   8.0     S   0.67  22.0     S  -86.4    ---    ---  1015.4  0.00  0.00   0.299   0.000   22.8    40    8.5   22.1   7.69  .0738    115    1    100.0    5 
10/12/19  11:45  -67.8  -67.8  -67.8   ---    ---   7.0   SSW   0.58  22.0     S  -85.2    ---    ---  1015.3  0.01  0.00   0.299   0.000   22.8    40    8.5   22.1   7.69  .0738    117    1    100.0    5 
10/12/19  11:50  -67.8  -67.8  -67.8   ---    ---   7.0   SSW   0.58  14.0   SSW  -85.2    ---    ---  1015.3  0.01  0.06   0.299   0.000   22.7    40    8.4   21.9   7.69  .0739    117    1    100.0    5 
10/12/19  11:55  -67.8  -67.8  -67.8   ---    ---   7.0   SSW   0.58  20.0     S  -85.2    ---    ---  1015.0  0.00  0.06   0.299   0.000   22.7    40    8.4   21.9   7.69  .0738    117    1    100.0    5 
10/12/19  12:00  -67.8  -67.8  -67.8   ---    ---   7.0   SSW   0.58  10.0   SSW  -85.2    ---    ---  1015.1  0.00  0.06   0.299   0.000   22.7    40    8.4   21.9   7.69  .0739    117    1    100.0    5 
10/12/19  12:05  -67.8  -67.8  -67.8   ---    ---   7.0   SSW   0.58  10.0   SSW  -85.2    ---    ---  1014.8  0.00  0.04   0.299   0.000   22.6    40    8.3   21.8   7.70  .0739    115    1    100.0    5 
10/12/19  12:10  -67.8  -67.8  -67.8   ---    ---   7.0   SSW   0.58  11.0     S  -85.2    ---    ---  1014.4  0.01  0.04   0.299   0.000   22.6    40    8.3   21.7   7.70  .0738    117    1    100.0    5 
10/12/19  12:15  -67.8  -67.8  -67.8   ---    ---   7.0   SSW   0.58   9.0   SSW  -85.2    ---    ---  1014.3  0.01  0.18   0.299   0.000   22.6    40    8.3   21.7   7.70  .0738    117    1    100.0    5 
10/12/19  12:20  -67.8  -67.8  -67.8   ---    ---   6.0     S   0.50   9.0    SW  -83.9    ---    ---  1014.2  0.00  0.06   0.299   0.000   22.5    41    8.6   21.7   7.85  .0738    117    1    100.0    5 
10/12/19  12:25  -67.8  -67.8  -67.8   ---    ---   7.0     S   0.58  12.0   ESE  -85.2    ---    ---  1014.2  0.00  0.04   0.299   0.000   22.4    41    8.5   21.6   7.85  .0738    116    1    100.0    5 
10/12/19  12:30  -67.8  -67.8  -67.8   ---    ---   6.0     S   0.50   9.0   SSW  -83.9    ---    ---  1014.0  0.00  0.00   0.299   0.000   22.4    41    8.5   21.6   7.85  .0738    114    1    100.0    5 
10/12/19  12:35  -67.8  -67.8  -67.8   ---    ---   7.0     S   0.58  10.0   SSW  -85.2    ---    ---  1013.8  0.00  0.00   0.299   0.000   22.4    41    8.5   21.5   7.86  .0738    117    1    100.0    5 
10/12/19  12:40  -67.8  -67.8  -67.8   ---    ---   7.0     S   0.58  10.0     S  -85.2    ---    ---  1013.5  0.00  0.00   0.299   0.000   22.3    41    8.4   21.4   7.86  .0738    114    1    100.0    5 
10/12/19  12:45  -67.8  -67.8  -67.8   ---    ---   6.0     S   0.50  10.0     S  -83.9    ---    ---  1013.4  0.00  0.00   0.299   0.000   22.3    41    8.4   21.4   7.86  .0738    117    1    100.0    5 
10/12/19  12:50  -67.8  -67.8  -67.8   ---    ---   8.0     S   0.67  11.0   SSW  -86.4    ---    ---  1013.2  0.00  0.00   0.299   0.000   22.3    41    8.4   21.3   7.87  .0738    117    1    100.0    5 
10/12/19  12:55  -67.8  -67.8  -67.8   ---    ---   7.0     S   0.58  15.0   SSW  -85.2    ---    ---  1013.2  0.00  0.00   0.299   0.000   22.3    41    8.4   21.3   7.87  .0738    117    1    100.0    5 
10/12/19  13:00  -67.8  -67.8  -67.8   ---    ---   6.0   SSW   0.50  10.0   SSW  -83.9    ---    ---  1013.0  0.00  0.00   0.299   0.000   22.2    41    8.3   21.2   7.87  .0738    117    1    100.0    5 
10/12/19  13:05  -67.8  -67.8  -67.8   ---    ---   8.0   SSW   0.67  11.0     S  -86.4    ---    ---  1012.8  0.00  0.00   0.299   0.000   22.2    41    8.3   21.2   7.87  .0738    117    1    100.0    5 
10/12/19  13:10  -67.8  -67.8  -67.8   ---    ---   7.0   SSW   0.58  12.0     S  -85.2    ---    ---  1012.8  0.00  0.00   0.299   0.000   22.2    41    8.3   21.2   7.87  .0738    117    1    100.0    5 
10/12/19  13:15  -67.8  -67.8  -67.8   ---    ---   7.0   SSW   0.58  11.0   SSW  -85.2    ---    ---  1012.6  0.00  0.00   0.299   0.000   22.2    41    8.3   21.2   7.87  .0738    117    1    100.0    5 
10/12/19  13:20  -67.8  -67.8  -67.8   ---    ---   7.0   SSW   0.58  12.0     S  -85.2    ---    ---  1012.4  0.00  0.00   0.299   0.000   22.1    41    8.2   21.1   7.88  .0738    117    1    100.0    5 
10/12/19  13:25  -67.8  -67.8  -67.8   ---    ---   8.0   SSW   0.67  12.0   SSW  -86.4    ---    ---  1012.2  0.00  0.00   0.299   0.000   22.1    41    8.2   21.1   7.88  .0738    117    1    100.0    5 
10/12/19  13:30  -67.8  -67.8  -67.8   ---    ---   7.0   SSW   0.58  12.0   SSW  -85.2    ---    ---  1012.1  0.00  0.00   0.299   0.000   22.1    41    8.2   20.9   7.88  .0738    117    1    100.0    5 
10/12/19  13:35  -67.8  -67.8  -67.8   ---    ---   8.0   SSW   0.67  13.0   SSW  -86.4    ---    ---  1012.1  0.00  0.00   0.299   0.000   22.1    41    8.2   20.9   7.88  .0738    118    1    100.0    5 
10/12/19  13:40  -67.8  -67.8  -67.8   ---    ---   7.0   SSW   0.58  12.0     S  -85.2    ---    ---  1012.0  0.00  0.00   0.299   0.000   22.0    41    8.1   20.9   7.89  .0738    117    1    100.0    5 
10/12/19  13:45  -67.8  -67.8  -67.8   ---    ---   8.0   SSW   0.67  14.0   SSW  -86.4    ---    ---  1011.8  0.00  0.00   0.299   0.000   22.0    41    8.1   20.9   7.89  .0738    117    1    100.0    5 
10/12/19  13:50  -67.8  -67.8  -67.8   ---    ---   8.0   SSW   0.67  12.0   SSW  -86.4    ---    ---  1011.7  0.00  0.00   0.299   0.000   21.9    41    8.1   20.8   7.89  .0738    117    1    100.0    5 
10/12/19  13:55  -67.8  -67.8  -67.8   ---    ---   9.0   SSW   0.75  18.0   SSW  -87.6    ---    ---  1011.6  0.01  0.00   0.299   0.000   21.9    41    8.1   20.8   7.89  .0738    115    1    100.0    5 
10/12/19  14:00  -67.8  -67.8  -67.8   ---    ---   9.0   SSW   0.75  14.0   SSW  -87.6    ---    ---  1011.4  0.00  0.00   0.299   0.000   21.9    41    8.0   20.7   7.89  .0738    116    1    100.0    5 
10/12/19  14:05  -67.8  -67.8  -67.8   ---    ---   8.0   SSW   0.67  14.0   SSW  -86.4    ---    ---  1011.3  0.00  0.00   0.299   0.000   21.9    42    8.4   20.8   8.02  .0738    116    1    100.0    5 
10/12/19  14:10  -67.8  -67.8  -67.8   ---    ---   9.0   SSW   0.75  17.0   SSW  -87.6    ---    ---  1011.2  0.00  0.00   0.299   0.000   21.8    44    9.0   20.8   8.32  .0737    117    1    100.0    5 
10/12/19  14:15  -67.8  -67.8  -67.8   ---    ---   9.0   SSW   0.75  16.0   SSW  -87.6    ---    ---  1011.1  0.00  0.00   0.299   0.000   21.9    44    9.1   20.9   8.32  .0737    116    1    100.0    5 
10/12/19  14:20  -67.8  -67.8  -67.8   ---    ---   9.0   SSW   0.75  14.0    SW  -87.6    ---    ---  1011.1  0.00  0.00   0.299   0.000   21.9    44    9.1   20.9   8.32  .0737    117    1    100.0    5 
10/12/19  14:25  -67.8  -67.8  -67.8   ---    ---  10.0   SSW   0.83  15.0   SSW  -88.6    ---    ---  1010.9  0.00  0.00   0.299   0.000   21.9    44    9.1   20.9   8.32  .0737    117    1    100.0    5 
10/12/19  14:30  -67.8  -67.8  -67.8   ---    ---   9.0   SSW   0.75  16.0   SSW  -87.6    ---    ---  1010.9  0.00  0.00   0.299   0.000   21.9    44    9.1   20.9   8.32  .0737    117    1    100.0    5 
10/12/19  14:35  -67.8  -67.8  -67.8   ---    ---   9.0   SSW   0.75  14.0    SW  -87.6    ---    ---  1010.9  0.00  0.00   0.299   0.000   21.9    44    9.1   20.9   8.32  .0737    117    1    100.0    5 
10/12/19  14:40  -67.8  -67.8  -67.8   ---    ---   8.0   SSW   0.67  12.0   SSW  -86.4    ---    ---  1010.8  0.00  0.00   0.299   0.000   21.9    44    9.1   20.9   8.32  .0737    118    1    100.0    5 
10/12/19  14:45  -67.8  -67.8  -67.8   ---    ---   7.0   SSW   0.58  11.0     S  -85.2    ---    ---  1010.6  0.00  0.00   0.299   0.000   21.9    44    9.1   20.9   8.32  .0737    117    1    100.0    5 
10/12/19  14:50  -67.8  -67.8  -67.8   ---    ---   7.0   SSW   0.58  11.0   SSW  -85.2    ---    ---  1010.6  0.00  0.00   0.299   0.000   21.9    44    9.1   20.9   8.32  .0737    116    1    100.0    5 
10/12/19  14:55  -67.8  -67.8  -67.8   ---    ---   8.0   SSW   0.67  17.0   SSW  -86.4    ---    ---  1010.5  0.00  0.00   0.299   0.000   21.9    43    8.7   20.8   8.19  .0737    115    1    100.0    5 
10/12/19  15:00  -67.8  -67.8  -67.8   ---    ---  10.0   SSW   0.83  17.0   SSW  -88.6    ---    ---  1010.3  0.00  0.00   0.299   0.000   21.9    43    8.7   20.8   8.19  .0737    117    1    100.0    5 
10/12/19  15:05  -67.8  -67.8  -67.8   ---    ---   8.0   SSW   0.67  12.0   SSW  -86.4    ---    ---  1010.3  0.00  0.00   0.299   0.000   21.9    44    9.1   20.9   8.32  .0737    116    1    100.0    5 
10/12/19  15:10  -67.8  -67.8  -67.8   ---    ---  10.0   SSW   0.83  18.0   SSW  -88.6    ---    ---  1010.1  0.00  0.00   0.299   0.000   21.9    43    8.7   20.8   8.19  .0737    117    1    100.0    5 
10/12/19  15:15  -67.8  -67.8  -67.8   ---    ---   8.0   SSW   0.67  14.0   SSW  -86.4    ---    ---  1010.0  0.00  0.00   0.299   0.000   21.9    43    8.7   20.8   8.19  .0737    117    1    100.0    5 
10/12/19  15:20  -67.8  -67.8  -67.8   ---    ---  10.0   SSW   0.83  18.0   SSW  -88.6    ---    ---  1009.9  0.00  0.00   0.299   0.000   21.9    43    8.7   20.8   8.19  .0737    116    1    100.0    5 
10/12/19  15:25  -67.8  -67.8  -67.8   ---    ---   9.0   SSW   0.75  15.0   SSW  -87.6    ---    ---  1009.7  0.00  0.00   0.299   0.000   21.9    43    8.7   20.8   8.19  .0736    117    1    100.0    5 
10/12/19  15:30  -67.8  -67.8  -67.8   ---    ---   8.0   SSW   0.67  14.0   SSW  -86.4    ---    ---  1009.6  0.00  0.00   0.299   0.000   21.9    43    8.7   20.8   8.19  .0736    117    1    100.0    5 
10/12/19  15:35  -67.8  -67.8  -67.8   ---    ---  10.0   SSW   0.83  20.0   SSW  -88.6    ---    ---  1009.5  0.00  0.00   0.299   0.000   21.9    43    8.7   20.8   8.19  .0736    117    1    100.0    5 
10/12/19  15:40  -67.8  -67.8  -67.8   ---    ---   8.0   SSW   0.67  17.0   SSW  -86.4    ---    ---  1009.5  0.00  0.00   0.299   0.000   21.9    43    8.7   20.8   8.19  .0736    118    1    100.0    5 
10/12/19  15:45  -67.8  -67.8  -67.8   ---    ---   7.0   SSW   0.58  11.0   SSW  -85.2    ---    ---  1009.4  0.00  0.00   0.299   0.000   21.9    43    8.7   20.8   8.19  .0736    117    1    100.0    5 
10/12/19  15:50  -67.8  -67.8  -67.8   ---    ---   7.0     S   0.58  14.0   SSW  -85.2    ---    ---  1009.2  0.00  0.00   0.299   0.000   21.9    43    8.7   20.8   8.19  .0736    117    1    100.0    5 
10/12/19  15:55  -67.8  -67.8  -67.8   ---    ---   7.0   SSW   0.58  13.0     S  -85.2    ---    ---  1009.3  0.00  0.00   0.299   0.000   21.9    43    8.8   20.9   8.19  .0736    117    1    100.0    5 
10/12/19  16:00  -67.8  -67.8  -67.8   ---    ---   8.0   SSW   0.67  17.0   SSW  -86.4    ---    ---  1009.1  0.00  0.00   0.299   0.000   21.9    43    8.8   20.9   8.19  .0736    117    1    100.0    5 
10/12/19  16:05  -67.8  -67.8  -67.8   ---    ---   8.0   SSW   0.67  15.0   SSE  -86.4    ---    ---  1008.8  0.00  0.00   0.299   0.000   21.9    43    8.8   20.9   8.19  .0735    117    1    100.0    5 
10/12/19  16:10  -67.8  -67.8  -67.8   ---    ---   8.0   SSW   0.67  16.0   SSW  -86.4    ---    ---  1008.9  0.00  0.00   0.299   0.000   22.0    43    8.8   21.0   8.19  .0735    117    1    100.0    5 
10/12/19  16:15  -67.8  -67.8  -67.8   ---    ---   8.0     S   0.67  15.0     S  -86.4    ---    ---  1008.6  0.00  0.00   0.299   0.000   22.0    43    8.8   21.0   8.19  .0735    116    1    100.0    5 
10/12/19  16:20  -67.8  -67.8  -67.8   ---    ---   8.0     S   0.67  13.0     S  -86.4    ---    ---  1008.6  0.00  0.00   0.299   0.000   22.0    43    8.8   21.0   8.19  .0735    117    1    100.0    5 
10/12/19  16:25  -67.8  -67.8  -67.8   ---    ---   8.0     S   0.67  12.0     S  -86.4    ---    ---  1008.3  0.00  0.00   0.299   0.000   22.1    43    8.9   21.1   8.18  .0735    117    1    100.0    5 
10/12/19  16:30  -67.8  -67.8  -67.8   ---    ---   8.0     S   0.67  15.0   SSW  -86.4    ---    ---  1008.3  0.00  0.00   0.299   0.000   22.1    43    8.9   21.1   8.18  .0735    116    1    100.0    5 
10/12/19  16:35  -67.8  -67.8  -67.8   ---    ---   9.0     S   0.75  15.0     S  -87.6    ---    ---  1008.2  0.00  0.00   0.299   0.000   22.1    43    8.9   21.1   8.18  .0735    117    1    100.0    5 
10/12/19  16:40  -67.8  -67.8  -67.8   ---    ---  10.0   SSW   0.83  17.0     S  -88.6    ---    ---  1008.1  0.00  0.00   0.299   0.000   22.1    43    8.9   21.2   8.18  .0734    116    1    100.0    5 
10/12/19  16:45  -67.8  -67.8  -67.8   ---    ---   8.0   SSW   0.67  15.0   SSW  -86.4    ---    ---  1008.0  0.00  0.00   0.299   0.000   22.1    43    8.9   21.2   8.18  .0734    117    1    100.0    5 
10/12/19  16:50  -67.8  -67.8  -67.8   ---    ---   9.0   SSW   0.75  15.0   SSW  -87.6    ---    ---  1007.8  0.00  0.00   0.299   0.000   22.1    43    8.9   21.2   8.18  .0734    117    1    100.0    5 
10/12/19  16:55  -67.8  -67.8  -67.8   ---    ---   9.0   SSW   0.75  18.0   SSW  -87.6    ---    ---  1007.8  0.00  0.00   0.299   0.000   22.1    44    9.3   21.2   8.31  .0734    117    1    100.0    5 
10/12/19  17:00  -67.8  -67.8  -67.8   ---    ---   8.0   SSW   0.67  13.0   SSW  -86.4    ---    ---  1007.7  0.00  0.00   0.299   0.000   22.1    44    9.3   21.2   8.31  .0734    116    1    100.0    5 
10/12/19  17:05  -67.8  -67.8  -67.8   ---    ---   9.0   SSW   0.75  17.0     S  -87.6    ---    ---  1007.6  0.00  0.00   0.299   0.000   22.1    43    8.9   21.2   8.18  .0734    117    1    100.0    5 
10/12/19  17:10  -67.8  -67.8  -67.8   ---    ---   9.0   SSW   0.75  17.0   SSW  -87.6    ---    ---  1007.7  0.00  0.00   0.299   0.000   22.2    44    9.3   21.3   8.31  .0734    117    1    100.0    5 
10/12/19  17:15  -67.8  -67.8  -67.8   ---    ---   9.0   SSW   0.75  16.0   SSW  -87.6    ---    ---  1007.2  0.00  0.00   0.299   0.000   22.2    44    9.3   21.3   8.31  .0733    117    1    100.0    5 
10/12/19  17:20  -67.8  -67.8  -67.8   ---    ---   8.0   SSW   0.67  17.0   SSW  -86.4    ---    ---  1007.3  0.00  0.00   0.299   0.000   22.1    44    9.3   21.2   8.31  .0734    117    1    100.0    5 
10/12/19  17:25  -67.8  -67.8  -67.8   ---    ---   9.0   SSW   0.75  21.0   SSW  -87.6    ---    ---  1007.1  0.00  0.00   0.299   0.000   22.2    44    9.3   21.3   8.31  .0733    117    1    100.0    5 
10/12/19  17:30  -67.8  -67.8  -67.8   ---    ---   8.0   SSW   0.67  13.0   SSW  -86.4    ---    ---  1007.0  0.00  0.00   0.299   0.000   22.2    44    9.3   21.3   8.31  .0733    117    1    100.0    5 
10/12/19  17:35  -67.8  -67.8  -67.8   ---    ---   8.0   SSW   0.67  18.0   SSW  -86.4    ---    ---  1007.0  0.00  0.00   0.299   0.000   22.2    44    9.3   21.3   8.31  .0733    117    1    100.0    5 
10/12/19  17:40  -67.8  -67.8  -67.8   ---    ---   9.0   SSW   0.75  18.0   SSW  -87.6    ---    ---  1006.6  0.00  0.00   0.299   0.000   22.2    44    9.3   21.3   8.31  .0733    116    1    100.0    5 
10/12/19  17:45  -67.8  -67.8  -67.8   ---    ---   9.0   SSW   0.75  15.0     S  -87.6    ---    ---  1007.0  0.00  0.00   0.299   0.000   22.2    44    9.4   21.4   8.31  .0733    117    1    100.0    5 
10/12/19  17:50  -67.8  -67.8  -67.8   ---    ---   9.0   SSW   0.75  16.0   SSW  -87.6    ---    ---  1006.7  0.00  0.00   0.299   0.000   22.2    44    9.4   21.4   8.31  .0733    118    1    100.0    5 
10/12/19  17:55  -67.8  -67.8  -67.8   ---    ---   9.0   SSW   0.75  15.0     S  -87.6    ---    ---  1006.6  0.00  0.00   0.299   0.000   22.3    44    9.4   21.5   8.31  .0733    117    1    100.0    5 
10/12/19  18:00  -67.8  -67.8  -67.8   ---    ---   9.0   SSW   0.75  16.0   SSW  -87.6    ---    ---  1006.4  0.00  0.00   0.299   0.000   22.3    44    9.4   21.5   8.31  .0733    116    1    100.0    5 
104444